<?xml version="1.0" encoding="utf-8"?>
<gpx xmlns:xsi="http://www.w3.org/2001/XMLSchema-instance" xmlns:xsd="http://www.w3.org/2001/XMLSchema" version="1.1" creator="Shapelink.com" xmlns="http://www.topografix.com/GPX/1/1" xmlns:gpxtpx="http://www.garmin.com/xmlschemas/TrackPointExtension/v1">
  <metadata>
    <name>Längdskidåkning - Klassisk 17.63 km, 2013-01-12</name>
    <desc></desc>
    <author><name>Alexander Engvall</name></author> 
    <time>2013-01-12T18:21:37Z</time>
  </metadata>
  <trk>
    <name>Längdskidåkning - Klassisk 17.63 km, 2013-01-12</name>
    <trkseg>
      <trkpt lat="59.4851828" lon="17.876639">
        <ele>18.4</ele>
        <time>2013-01-12T18:21:37Z</time>
      </trkpt>
      <trkpt lat="59.4853793" lon="17.8766073">
        <ele>17.2</ele>
        <time>2013-01-12T18:21:45Z</time>
      </trkpt>
      <trkpt lat="59.485446" lon="17.8766426">
        <ele>16.8</ele>
        <time>2013-01-12T18:21:47Z</time>
      </trkpt>
      <trkpt lat="59.4855668" lon="17.8767389">
        <ele>15.8</ele>
        <time>2013-01-12T18:21:51Z</time>
      </trkpt>
      <trkpt lat="59.485745" lon="17.8769771">
        <ele>13.6</ele>
        <time>2013-01-12T18:21:57Z</time>
      </trkpt>
      <trkpt lat="59.4858847" lon="17.8771429">
        <ele>13.2</ele>
        <time>2013-01-12T18:22:02Z</time>
      </trkpt>
      <trkpt lat="59.4860853" lon="17.877367">
        <ele>10.2</ele>
        <time>2013-01-12T18:22:07Z</time>
      </trkpt>
      <trkpt lat="59.4862516" lon="17.8775413">
        <ele>6.6</ele>
        <time>2013-01-12T18:22:12Z</time>
      </trkpt>
      <trkpt lat="59.48644" lon="17.8777327">
        <ele>7</ele>
        <time>2013-01-12T18:22:17Z</time>
      </trkpt>
      <trkpt lat="59.486579" lon="17.8778587">
        <ele>7.8</ele>
        <time>2013-01-12T18:22:21Z</time>
      </trkpt>
      <trkpt lat="59.4866112" lon="17.877896">
        <ele>8</ele>
        <time>2013-01-12T18:22:22Z</time>
      </trkpt>
      <trkpt lat="59.4867162" lon="17.8780277">
        <ele>8.8</ele>
        <time>2013-01-12T18:22:25Z</time>
      </trkpt>
      <trkpt lat="59.4867793" lon="17.8781057">
        <ele>9.4</ele>
        <time>2013-01-12T18:22:27Z</time>
      </trkpt>
      <trkpt lat="59.4869067" lon="17.8782433">
        <ele>10.2</ele>
        <time>2013-01-12T18:22:32Z</time>
      </trkpt>
      <trkpt lat="59.4870032" lon="17.8783008">
        <ele>10.8</ele>
        <time>2013-01-12T18:22:34Z</time>
      </trkpt>
      <trkpt lat="59.4871325" lon="17.8782509">
        <ele>10.6</ele>
        <time>2013-01-12T18:22:38Z</time>
      </trkpt>
      <trkpt lat="59.4872939" lon="17.8780006">
        <ele>10.6</ele>
        <time>2013-01-12T18:22:43Z</time>
      </trkpt>
      <trkpt lat="59.4874538" lon="17.8778174">
        <ele>10.2</ele>
        <time>2013-01-12T18:22:47Z</time>
      </trkpt>
      <trkpt lat="59.4875443" lon="17.8777701">
        <ele>9.8</ele>
        <time>2013-01-12T18:22:49Z</time>
      </trkpt>
      <trkpt lat="59.487657" lon="17.8777477">
        <ele>9</ele>
        <time>2013-01-12T18:22:51Z</time>
      </trkpt>
      <trkpt lat="59.4878404" lon="17.8778895">
        <ele>9.4</ele>
        <time>2013-01-12T18:22:55Z</time>
      </trkpt>
      <trkpt lat="59.4878404" lon="17.8778895">
        <ele>9.4</ele>
        <time>2013-01-12T18:22:56Z</time>
      </trkpt>
      <trkpt lat="59.4879155" lon="17.8780153">
        <ele>9.8</ele>
        <time>2013-01-12T18:22:57Z</time>
      </trkpt>
      <trkpt lat="59.4879827" lon="17.8781391">
        <ele>8.4</ele>
        <time>2013-01-12T18:22:59Z</time>
      </trkpt>
      <trkpt lat="59.4880533" lon="17.8782025">
        <ele>8.6</ele>
        <time>2013-01-12T18:23:02Z</time>
      </trkpt>
      <trkpt lat="59.4881355" lon="17.8781925">
        <ele>9.4</ele>
        <time>2013-01-12T18:23:03Z</time>
      </trkpt>
      <trkpt lat="59.488179" lon="17.8781829">
        <ele>10.2</ele>
        <time>2013-01-12T18:23:04Z</time>
      </trkpt>
      <trkpt lat="59.4883634" lon="17.8783562">
        <ele>8</ele>
        <time>2013-01-12T18:23:10Z</time>
      </trkpt>
      <trkpt lat="59.4883898" lon="17.878383">
        <ele>7.4</ele>
        <time>2013-01-12T18:23:11Z</time>
      </trkpt>
      <trkpt lat="59.4885405" lon="17.8785315">
        <ele>8.6</ele>
        <time>2013-01-12T18:23:15Z</time>
      </trkpt>
      <trkpt lat="59.4887039" lon="17.8787038">
        <ele>7.2</ele>
        <time>2013-01-12T18:23:19Z</time>
      </trkpt>
      <trkpt lat="59.4887396" lon="17.8787274">
        <ele>6.8</ele>
        <time>2013-01-12T18:23:20Z</time>
      </trkpt>
      <trkpt lat="59.488852" lon="17.8787394">
        <ele>7.2</ele>
        <time>2013-01-12T18:23:23Z</time>
      </trkpt>
      <trkpt lat="59.4888914" lon="17.8787294">
        <ele>7.2</ele>
        <time>2013-01-12T18:23:24Z</time>
      </trkpt>
      <trkpt lat="59.4890063" lon="17.8787032">
        <ele>6.8</ele>
        <time>2013-01-12T18:23:27Z</time>
      </trkpt>
      <trkpt lat="59.4890797" lon="17.8787083">
        <ele>7.2</ele>
        <time>2013-01-12T18:23:29Z</time>
      </trkpt>
      <trkpt lat="59.4892855" lon="17.8787504">
        <ele>7.2</ele>
        <time>2013-01-12T18:23:36Z</time>
      </trkpt>
      <trkpt lat="59.4894787" lon="17.8786947">
        <ele>6.2</ele>
        <time>2013-01-12T18:23:42Z</time>
      </trkpt>
      <trkpt lat="59.4896195" lon="17.8785304">
        <ele>6.8</ele>
        <time>2013-01-12T18:23:48Z</time>
      </trkpt>
      <trkpt lat="59.489632" lon="17.8784799">
        <ele>7.2</ele>
        <time>2013-01-12T18:23:49Z</time>
      </trkpt>
      <trkpt lat="59.4896268" lon="17.8780846">
        <ele>6.4</ele>
        <time>2013-01-12T18:23:55Z</time>
      </trkpt>
      <trkpt lat="59.4895839" lon="17.8779774">
        <ele>6.8</ele>
        <time>2013-01-12T18:23:57Z</time>
      </trkpt>
      <trkpt lat="59.4894594" lon="17.8779045">
        <ele>7.4</ele>
        <time>2013-01-12T18:24:01Z</time>
      </trkpt>
      <trkpt lat="59.4892693" lon="17.8778644">
        <ele>7.4</ele>
        <time>2013-01-12T18:24:07Z</time>
      </trkpt>
      <trkpt lat="59.489086" lon="17.8780057">
        <ele>6.4</ele>
        <time>2013-01-12T18:24:13Z</time>
      </trkpt>
      <trkpt lat="59.4889831" lon="17.8780492">
        <ele>4.4</ele>
        <time>2013-01-12T18:24:16Z</time>
      </trkpt>
      <trkpt lat="59.4889245" lon="17.8779668">
        <ele>3.2</ele>
        <time>2013-01-12T18:24:18Z</time>
      </trkpt>
      <trkpt lat="59.4889039" lon="17.8776239">
        <ele>3.2</ele>
        <time>2013-01-12T18:24:23Z</time>
      </trkpt>
      <trkpt lat="59.4889327" lon="17.8775069">
        <ele>3</ele>
        <time>2013-01-12T18:24:26Z</time>
      </trkpt>
      <trkpt lat="59.4890297" lon="17.8773122">
        <ele>4</ele>
        <time>2013-01-12T18:24:29Z</time>
      </trkpt>
      <trkpt lat="59.489132" lon="17.8771932">
        <ele>5.8</ele>
        <time>2013-01-12T18:24:33Z</time>
      </trkpt>
      <trkpt lat="59.4892011" lon="17.877188">
        <ele>6.4</ele>
        <time>2013-01-12T18:24:35Z</time>
      </trkpt>
      <trkpt lat="59.4893908" lon="17.8772584">
        <ele>10.4</ele>
        <time>2013-01-12T18:24:41Z</time>
      </trkpt>
      <trkpt lat="59.4894822" lon="17.8772541">
        <ele>12.4</ele>
        <time>2013-01-12T18:24:44Z</time>
      </trkpt>
      <trkpt lat="59.4895954" lon="17.8772605">
        <ele>14.8</ele>
        <time>2013-01-12T18:24:47Z</time>
      </trkpt>
      <trkpt lat="59.4897827" lon="17.8772641">
        <ele>16.2</ele>
        <time>2013-01-12T18:24:52Z</time>
      </trkpt>
      <trkpt lat="59.4899712" lon="17.8771703">
        <ele>16.2</ele>
        <time>2013-01-12T18:24:57Z</time>
      </trkpt>
      <trkpt lat="59.4901714" lon="17.8770616">
        <ele>16</ele>
        <time>2013-01-12T18:25:02Z</time>
      </trkpt>
      <trkpt lat="59.4902116" lon="17.8770296">
        <ele>15.8</ele>
        <time>2013-01-12T18:25:03Z</time>
      </trkpt>
      <trkpt lat="59.4903256" lon="17.8769252">
        <ele>15.2</ele>
        <time>2013-01-12T18:25:06Z</time>
      </trkpt>
      <trkpt lat="59.4903537" lon="17.8768937">
        <ele>15.2</ele>
        <time>2013-01-12T18:25:07Z</time>
      </trkpt>
      <trkpt lat="59.4905292" lon="17.876828">
        <ele>13.8</ele>
        <time>2013-01-12T18:25:12Z</time>
      </trkpt>
      <trkpt lat="59.4905702" lon="17.8768336">
        <ele>13.4</ele>
        <time>2013-01-12T18:25:13Z</time>
      </trkpt>
      <trkpt lat="59.4907263" lon="17.8768574">
        <ele>12.2</ele>
        <time>2013-01-12T18:25:17Z</time>
      </trkpt>
      <trkpt lat="59.4909244" lon="17.8768647">
        <ele>11</ele>
        <time>2013-01-12T18:25:22Z</time>
      </trkpt>
      <trkpt lat="59.4911101" lon="17.8769202">
        <ele>9.8</ele>
        <time>2013-01-12T18:25:27Z</time>
      </trkpt>
      <trkpt lat="59.4912419" lon="17.8769745">
        <ele>8.8</ele>
        <time>2013-01-12T18:25:30Z</time>
      </trkpt>
      <trkpt lat="59.4912856" lon="17.8769989">
        <ele>8.6</ele>
        <time>2013-01-12T18:25:31Z</time>
      </trkpt>
      <trkpt lat="59.491461" lon="17.8770952">
        <ele>7.4</ele>
        <time>2013-01-12T18:25:35Z</time>
      </trkpt>
      <trkpt lat="59.4916011" lon="17.8771204">
        <ele>7.2</ele>
        <time>2013-01-12T18:25:38Z</time>
      </trkpt>
      <trkpt lat="59.4916508" lon="17.877116">
        <ele>7.4</ele>
        <time>2013-01-12T18:25:39Z</time>
      </trkpt>
      <trkpt lat="59.491776" lon="17.8770729">
        <ele>7</ele>
        <time>2013-01-12T18:25:42Z</time>
      </trkpt>
      <trkpt lat="59.4918408" lon="17.8770456">
        <ele>6.4</ele>
        <time>2013-01-12T18:25:44Z</time>
      </trkpt>
      <trkpt lat="59.4918755" lon="17.8770392">
        <ele>6.6</ele>
        <time>2013-01-12T18:25:45Z</time>
      </trkpt>
      <trkpt lat="59.4920433" lon="17.8770538">
        <ele>8.4</ele>
        <time>2013-01-12T18:25:50Z</time>
      </trkpt>
      <trkpt lat="59.4922588" lon="17.8770357">
        <ele>7</ele>
        <time>2013-01-12T18:25:56Z</time>
      </trkpt>
      <trkpt lat="59.4924605" lon="17.8770534">
        <ele>7.4</ele>
        <time>2013-01-12T18:26:01Z</time>
      </trkpt>
      <trkpt lat="59.4926457" lon="17.8770544">
        <ele>7.6</ele>
        <time>2013-01-12T18:26:06Z</time>
      </trkpt>
      <trkpt lat="59.4928602" lon="17.8771067">
        <ele>8</ele>
        <time>2013-01-12T18:26:12Z</time>
      </trkpt>
      <trkpt lat="59.4930382" lon="17.8772427">
        <ele>7.6</ele>
        <time>2013-01-12T18:26:17Z</time>
      </trkpt>
      <trkpt lat="59.4932264" lon="17.8774139">
        <ele>8.4</ele>
        <time>2013-01-12T18:26:22Z</time>
      </trkpt>
      <trkpt lat="59.4933457" lon="17.8775385">
        <ele>8.2</ele>
        <time>2013-01-12T18:26:25Z</time>
      </trkpt>
      <trkpt lat="59.4934191" lon="17.8776213">
        <ele>8.4</ele>
        <time>2013-01-12T18:26:27Z</time>
      </trkpt>
      <trkpt lat="59.4935419" lon="17.8777697">
        <ele>9.2</ele>
        <time>2013-01-12T18:26:30Z</time>
      </trkpt>
      <trkpt lat="59.4935815" lon="17.8778313">
        <ele>8.8</ele>
        <time>2013-01-12T18:26:31Z</time>
      </trkpt>
      <trkpt lat="59.4936647" lon="17.8779529">
        <ele>8.6</ele>
        <time>2013-01-12T18:26:33Z</time>
      </trkpt>
      <trkpt lat="59.493759" lon="17.8780649">
        <ele>8</ele>
        <time>2013-01-12T18:26:35Z</time>
      </trkpt>
      <trkpt lat="59.4938094" lon="17.8781012">
        <ele>7.4</ele>
        <time>2013-01-12T18:26:36Z</time>
      </trkpt>
      <trkpt lat="59.4939438" lon="17.878101">
        <ele>6.4</ele>
        <time>2013-01-12T18:26:39Z</time>
      </trkpt>
      <trkpt lat="59.4939835" lon="17.8780768">
        <ele>6</ele>
        <time>2013-01-12T18:26:40Z</time>
      </trkpt>
      <trkpt lat="59.4940984" lon="17.8779638">
        <ele>5.4</ele>
        <time>2013-01-12T18:26:43Z</time>
      </trkpt>
      <trkpt lat="59.4941343" lon="17.8779173">
        <ele>4.2</ele>
        <time>2013-01-12T18:26:44Z</time>
      </trkpt>
      <trkpt lat="59.4942966" lon="17.8777258">
        <ele>3.8</ele>
        <time>2013-01-12T18:26:48Z</time>
      </trkpt>
      <trkpt lat="59.4943674" lon="17.8776392">
        <ele>3.4</ele>
        <time>2013-01-12T18:26:50Z</time>
      </trkpt>
      <trkpt lat="59.494462" lon="17.8775281">
        <ele>3.8</ele>
        <time>2013-01-12T18:26:53Z</time>
      </trkpt>
      <trkpt lat="59.4944915" lon="17.8774906">
        <ele>3.2</ele>
        <time>2013-01-12T18:26:54Z</time>
      </trkpt>
      <trkpt lat="59.4946525" lon="17.8773867">
        <ele>3.6</ele>
        <time>2013-01-12T18:26:58Z</time>
      </trkpt>
      <trkpt lat="59.4948454" lon="17.8773169">
        <ele>4.8</ele>
        <time>2013-01-12T18:27:03Z</time>
      </trkpt>
      <trkpt lat="59.4950309" lon="17.877222">
        <ele>5.2</ele>
        <time>2013-01-12T18:27:08Z</time>
      </trkpt>
      <trkpt lat="59.4952076" lon="17.8770173">
        <ele>7.6</ele>
        <time>2013-01-12T18:27:15Z</time>
      </trkpt>
      <trkpt lat="59.495254" lon="17.8768481">
        <ele>9.2</ele>
        <time>2013-01-12T18:27:18Z</time>
      </trkpt>
      <trkpt lat="59.4952531" lon="17.8766533">
        <ele>9.4</ele>
        <time>2013-01-12T18:27:21Z</time>
      </trkpt>
      <trkpt lat="59.4951935" lon="17.8762648">
        <ele>11</ele>
        <time>2013-01-12T18:27:27Z</time>
      </trkpt>
      <trkpt lat="59.4951824" lon="17.875851">
        <ele>9.8</ele>
        <time>2013-01-12T18:27:32Z</time>
      </trkpt>
      <trkpt lat="59.4951758" lon="17.8756587">
        <ele>7.8</ele>
        <time>2013-01-12T18:27:34Z</time>
      </trkpt>
      <trkpt lat="59.4951189" lon="17.8754558">
        <ele>6.6</ele>
        <time>2013-01-12T18:27:36Z</time>
      </trkpt>
      <trkpt lat="59.4949268" lon="17.875267">
        <ele>5.8</ele>
        <time>2013-01-12T18:27:40Z</time>
      </trkpt>
      <trkpt lat="59.4948288" lon="17.8752206">
        <ele>5.4</ele>
        <time>2013-01-12T18:27:42Z</time>
      </trkpt>
      <trkpt lat="59.4947428" lon="17.8751768">
        <ele>4.8</ele>
        <time>2013-01-12T18:27:44Z</time>
      </trkpt>
      <trkpt lat="59.4946681" lon="17.875133">
        <ele>5</ele>
        <time>2013-01-12T18:27:46Z</time>
      </trkpt>
      <trkpt lat="59.4945417" lon="17.8750961">
        <ele>5</ele>
        <time>2013-01-12T18:27:50Z</time>
      </trkpt>
      <trkpt lat="59.494445" lon="17.8750797">
        <ele>5.2</ele>
        <time>2013-01-12T18:27:53Z</time>
      </trkpt>
      <trkpt lat="59.4943485" lon="17.8750968">
        <ele>5.2</ele>
        <time>2013-01-12T18:27:56Z</time>
      </trkpt>
      <trkpt lat="59.4941699" lon="17.8751693">
        <ele>6.6</ele>
        <time>2013-01-12T18:28:01Z</time>
      </trkpt>
      <trkpt lat="59.4939928" lon="17.8752589">
        <ele>6.6</ele>
        <time>2013-01-12T18:28:06Z</time>
      </trkpt>
      <trkpt lat="59.4938012" lon="17.8753958">
        <ele>6.8</ele>
        <time>2013-01-12T18:28:12Z</time>
      </trkpt>
      <trkpt lat="59.4936009" lon="17.8755253">
        <ele>6.6</ele>
        <time>2013-01-12T18:28:19Z</time>
      </trkpt>
      <trkpt lat="59.4934192" lon="17.8756779">
        <ele>5.8</ele>
        <time>2013-01-12T18:28:24Z</time>
      </trkpt>
      <trkpt lat="59.4932731" lon="17.8759335">
        <ele>4.8</ele>
        <time>2013-01-12T18:28:29Z</time>
      </trkpt>
      <trkpt lat="59.4931168" lon="17.8761574">
        <ele>2.8</ele>
        <time>2013-01-12T18:28:34Z</time>
      </trkpt>
      <trkpt lat="59.4929246" lon="17.8762277">
        <ele>1.8</ele>
        <time>2013-01-12T18:28:40Z</time>
      </trkpt>
      <trkpt lat="59.492708" lon="17.8762277">
        <ele>3.8</ele>
        <time>2013-01-12T18:28:46Z</time>
      </trkpt>
      <trkpt lat="59.4925205" lon="17.876368">
        <ele>6</ele>
        <time>2013-01-12T18:28:52Z</time>
      </trkpt>
      <trkpt lat="59.492346" lon="17.8765383">
        <ele>6</ele>
        <time>2013-01-12T18:28:57Z</time>
      </trkpt>
      <trkpt lat="59.4921548" lon="17.8767407">
        <ele>7.6</ele>
        <time>2013-01-12T18:29:02Z</time>
      </trkpt>
      <trkpt lat="59.492127" lon="17.8768003">
        <ele>7.4</ele>
        <time>2013-01-12T18:29:03Z</time>
      </trkpt>
      <trkpt lat="59.4920517" lon="17.8770041">
        <ele>8.4</ele>
        <time>2013-01-12T18:29:06Z</time>
      </trkpt>
      <trkpt lat="59.4920309" lon="17.8770638">
        <ele>9</ele>
        <time>2013-01-12T18:29:07Z</time>
      </trkpt>
      <trkpt lat="59.4918611" lon="17.8771637">
        <ele>11.2</ele>
        <time>2013-01-12T18:29:12Z</time>
      </trkpt>
      <trkpt lat="59.4916534" lon="17.8771686">
        <ele>9.6</ele>
        <time>2013-01-12T18:29:17Z</time>
      </trkpt>
      <trkpt lat="59.4914857" lon="17.8771323">
        <ele>7.8</ele>
        <time>2013-01-12T18:29:21Z</time>
      </trkpt>
      <trkpt lat="59.4914483" lon="17.8771127">
        <ele>7.6</ele>
        <time>2013-01-12T18:29:22Z</time>
      </trkpt>
      <trkpt lat="59.4914141" lon="17.8771008">
        <ele>7.4</ele>
        <time>2013-01-12T18:29:23Z</time>
      </trkpt>
      <trkpt lat="59.4912368" lon="17.8769703">
        <ele>6.6</ele>
        <time>2013-01-12T18:29:28Z</time>
      </trkpt>
      <trkpt lat="59.4910617" lon="17.8767943">
        <ele>6.8</ele>
        <time>2013-01-12T18:29:33Z</time>
      </trkpt>
      <trkpt lat="59.4908899" lon="17.8766071">
        <ele>7</ele>
        <time>2013-01-12T18:29:39Z</time>
      </trkpt>
      <trkpt lat="59.4906832" lon="17.8765072">
        <ele>6.4</ele>
        <time>2013-01-12T18:29:44Z</time>
      </trkpt>
      <trkpt lat="59.4905014" lon="17.8764213">
        <ele>6</ele>
        <time>2013-01-12T18:29:48Z</time>
      </trkpt>
      <trkpt lat="59.4904592" lon="17.8764043">
        <ele>5.6</ele>
        <time>2013-01-12T18:29:49Z</time>
      </trkpt>
      <trkpt lat="59.4903079" lon="17.8763519">
        <ele>6.4</ele>
        <time>2013-01-12T18:29:53Z</time>
      </trkpt>
      <trkpt lat="59.4902709" lon="17.8763217">
        <ele>6.6</ele>
        <time>2013-01-12T18:29:54Z</time>
      </trkpt>
      <trkpt lat="59.4902356" lon="17.876298">
        <ele>6.8</ele>
        <time>2013-01-12T18:29:55Z</time>
      </trkpt>
      <trkpt lat="59.4901196" lon="17.8761886">
        <ele>7</ele>
        <time>2013-01-12T18:29:59Z</time>
      </trkpt>
      <trkpt lat="59.4899533" lon="17.8759396">
        <ele>8.2</ele>
        <time>2013-01-12T18:30:05Z</time>
      </trkpt>
      <trkpt lat="59.4898309" lon="17.8756686">
        <ele>9.6</ele>
        <time>2013-01-12T18:30:10Z</time>
      </trkpt>
      <trkpt lat="59.4897689" lon="17.8752782">
        <ele>11</ele>
        <time>2013-01-12T18:30:15Z</time>
      </trkpt>
      <trkpt lat="59.4897911" lon="17.8750279">
        <ele>11.2</ele>
        <time>2013-01-12T18:30:18Z</time>
      </trkpt>
      <trkpt lat="59.4898094" lon="17.874866">
        <ele>11</ele>
        <time>2013-01-12T18:30:20Z</time>
      </trkpt>
      <trkpt lat="59.4898115" lon="17.8747843">
        <ele>11.4</ele>
        <time>2013-01-12T18:30:21Z</time>
      </trkpt>
      <trkpt lat="59.4897089" lon="17.8745462">
        <ele>10.8</ele>
        <time>2013-01-12T18:30:26Z</time>
      </trkpt>
      <trkpt lat="59.4895053" lon="17.8746326">
        <ele>10.6</ele>
        <time>2013-01-12T18:30:32Z</time>
      </trkpt>
      <trkpt lat="59.4893259" lon="17.8747847">
        <ele>9.8</ele>
        <time>2013-01-12T18:30:37Z</time>
      </trkpt>
      <trkpt lat="59.4892944" lon="17.874798">
        <ele>9.8</ele>
        <time>2013-01-12T18:30:38Z</time>
      </trkpt>
      <trkpt lat="59.489152" lon="17.8747139">
        <ele>10</ele>
        <time>2013-01-12T18:30:42Z</time>
      </trkpt>
      <trkpt lat="59.4890539" lon="17.8743985">
        <ele>8.6</ele>
        <time>2013-01-12T18:30:47Z</time>
      </trkpt>
      <trkpt lat="59.4890642" lon="17.8741132">
        <ele>9.8</ele>
        <time>2013-01-12T18:30:52Z</time>
      </trkpt>
      <trkpt lat="59.4890624" lon="17.8740228">
        <ele>9.8</ele>
        <time>2013-01-12T18:30:54Z</time>
      </trkpt>
      <trkpt lat="59.4890877" lon="17.8736405">
        <ele>11.6</ele>
        <time>2013-01-12T18:31:01Z</time>
      </trkpt>
      <trkpt lat="59.4891535" lon="17.8732659">
        <ele>11.6</ele>
        <time>2013-01-12T18:31:07Z</time>
      </trkpt>
      <trkpt lat="59.4891986" lon="17.872903">
        <ele>12.8</ele>
        <time>2013-01-12T18:31:13Z</time>
      </trkpt>
      <trkpt lat="59.4892017" lon="17.8725439">
        <ele>14.6</ele>
        <time>2013-01-12T18:31:19Z</time>
      </trkpt>
      <trkpt lat="59.4891586" lon="17.8721995">
        <ele>16.8</ele>
        <time>2013-01-12T18:31:25Z</time>
      </trkpt>
      <trkpt lat="59.4890562" lon="17.8718872">
        <ele>17.2</ele>
        <time>2013-01-12T18:31:32Z</time>
      </trkpt>
      <trkpt lat="59.4889857" lon="17.8715166">
        <ele>19.6</ele>
        <time>2013-01-12T18:31:38Z</time>
      </trkpt>
      <trkpt lat="59.4889269" lon="17.8711211">
        <ele>20.6</ele>
        <time>2013-01-12T18:31:44Z</time>
      </trkpt>
      <trkpt lat="59.488887" lon="17.8707413">
        <ele>21.6</ele>
        <time>2013-01-12T18:31:50Z</time>
      </trkpt>
      <trkpt lat="59.4888682" lon="17.8703704">
        <ele>22.8</ele>
        <time>2013-01-12T18:31:55Z</time>
      </trkpt>
      <trkpt lat="59.4889062" lon="17.8699824">
        <ele>23.6</ele>
        <time>2013-01-12T18:32:01Z</time>
      </trkpt>
      <trkpt lat="59.4890433" lon="17.8697404">
        <ele>23.8</ele>
        <time>2013-01-12T18:32:07Z</time>
      </trkpt>
      <trkpt lat="59.4891768" lon="17.8694789">
        <ele>23.8</ele>
        <time>2013-01-12T18:32:13Z</time>
      </trkpt>
      <trkpt lat="59.4893134" lon="17.8692263">
        <ele>24.2</ele>
        <time>2013-01-12T18:32:18Z</time>
      </trkpt>
      <trkpt lat="59.4894796" lon="17.8690593">
        <ele>24.4</ele>
        <time>2013-01-12T18:32:23Z</time>
      </trkpt>
      <trkpt lat="59.4896703" lon="17.8690126">
        <ele>24</ele>
        <time>2013-01-12T18:32:28Z</time>
      </trkpt>
      <trkpt lat="59.489872" lon="17.8690024">
        <ele>24.2</ele>
        <time>2013-01-12T18:32:35Z</time>
      </trkpt>
      <trkpt lat="59.4900727" lon="17.8690075">
        <ele>26.8</ele>
        <time>2013-01-12T18:32:41Z</time>
      </trkpt>
      <trkpt lat="59.4902646" lon="17.8689897">
        <ele>29</ele>
        <time>2013-01-12T18:32:47Z</time>
      </trkpt>
      <trkpt lat="59.4904661" lon="17.8688946">
        <ele>28.8</ele>
        <time>2013-01-12T18:32:52Z</time>
      </trkpt>
      <trkpt lat="59.4906706" lon="17.8687983">
        <ele>30.2</ele>
        <time>2013-01-12T18:32:57Z</time>
      </trkpt>
      <trkpt lat="59.4907408" lon="17.8687579">
        <ele>30.2</ele>
        <time>2013-01-12T18:32:59Z</time>
      </trkpt>
      <trkpt lat="59.4908438" lon="17.8686978">
        <ele>31.4</ele>
        <time>2013-01-12T18:33:03Z</time>
      </trkpt>
      <trkpt lat="59.4909853" lon="17.8686941">
        <ele>33.8</ele>
        <time>2013-01-12T18:33:08Z</time>
      </trkpt>
      <trkpt lat="59.4910392" lon="17.8687119">
        <ele>34.6</ele>
        <time>2013-01-12T18:33:10Z</time>
      </trkpt>
      <trkpt lat="59.4912232" lon="17.868805">
        <ele>35.8</ele>
        <time>2013-01-12T18:33:15Z</time>
      </trkpt>
      <trkpt lat="59.4913983" lon="17.8689402">
        <ele>37.8</ele>
        <time>2013-01-12T18:33:20Z</time>
      </trkpt>
      <trkpt lat="59.4915607" lon="17.8691262">
        <ele>41.6</ele>
        <time>2013-01-12T18:33:27Z</time>
      </trkpt>
      <trkpt lat="59.4917135" lon="17.8693311">
        <ele>43.6</ele>
        <time>2013-01-12T18:33:35Z</time>
      </trkpt>
      <trkpt lat="59.4918922" lon="17.869406">
        <ele>43.2</ele>
        <time>2013-01-12T18:33:43Z</time>
      </trkpt>
      <trkpt lat="59.4920728" lon="17.8693255">
        <ele>42.6</ele>
        <time>2013-01-12T18:33:49Z</time>
      </trkpt>
      <trkpt lat="59.4922216" lon="17.8691126">
        <ele>43.6</ele>
        <time>2013-01-12T18:33:55Z</time>
      </trkpt>
      <trkpt lat="59.4922828" lon="17.8687838">
        <ele>41.6</ele>
        <time>2013-01-12T18:34:01Z</time>
      </trkpt>
      <trkpt lat="59.4922689" lon="17.8687154">
        <ele>41</ele>
        <time>2013-01-12T18:34:02Z</time>
      </trkpt>
      <trkpt lat="59.492136" lon="17.8685852">
        <ele>40.2</ele>
        <time>2013-01-12T18:34:06Z</time>
      </trkpt>
      <trkpt lat="59.4920246" lon="17.8685998">
        <ele>38</ele>
        <time>2013-01-12T18:34:09Z</time>
      </trkpt>
      <trkpt lat="59.4919357" lon="17.8685857">
        <ele>36.6</ele>
        <time>2013-01-12T18:34:11Z</time>
      </trkpt>
      <trkpt lat="59.4917922" lon="17.8684948">
        <ele>34.6</ele>
        <time>2013-01-12T18:34:14Z</time>
      </trkpt>
      <trkpt lat="59.4917368" lon="17.8684318">
        <ele>34.6</ele>
        <time>2013-01-12T18:34:15Z</time>
      </trkpt>
      <trkpt lat="59.4915778" lon="17.8682314">
        <ele>34</ele>
        <time>2013-01-12T18:34:18Z</time>
      </trkpt>
      <trkpt lat="59.491409" lon="17.8680224">
        <ele>32.8</ele>
        <time>2013-01-12T18:34:21Z</time>
      </trkpt>
      <trkpt lat="59.491267" lon="17.8677803">
        <ele>31.2</ele>
        <time>2013-01-12T18:34:24Z</time>
      </trkpt>
      <trkpt lat="59.4911156" lon="17.8675291">
        <ele>30.6</ele>
        <time>2013-01-12T18:34:27Z</time>
      </trkpt>
      <trkpt lat="59.4910701" lon="17.8674478">
        <ele>30.2</ele>
        <time>2013-01-12T18:34:28Z</time>
      </trkpt>
      <trkpt lat="59.4909238" lon="17.8673265">
        <ele>29.4</ele>
        <time>2013-01-12T18:34:31Z</time>
      </trkpt>
      <trkpt lat="59.4907491" lon="17.8673371">
        <ele>28</ele>
        <time>2013-01-12T18:34:34Z</time>
      </trkpt>
      <trkpt lat="59.4906996" lon="17.8673577">
        <ele>27.2</ele>
        <time>2013-01-12T18:34:35Z</time>
      </trkpt>
      <trkpt lat="59.490522" lon="17.8674784">
        <ele>26</ele>
        <time>2013-01-12T18:34:39Z</time>
      </trkpt>
      <trkpt lat="59.4903522" lon="17.867569">
        <ele>24.2</ele>
        <time>2013-01-12T18:34:43Z</time>
      </trkpt>
      <trkpt lat="59.4903092" lon="17.8675805">
        <ele>24</ele>
        <time>2013-01-12T18:34:44Z</time>
      </trkpt>
      <trkpt lat="59.490233" lon="17.8676012">
        <ele>24.2</ele>
        <time>2013-01-12T18:34:46Z</time>
      </trkpt>
      <trkpt lat="59.4901278" lon="17.8676225">
        <ele>24.6</ele>
        <time>2013-01-12T18:34:49Z</time>
      </trkpt>
      <trkpt lat="59.4899185" lon="17.8676595">
        <ele>24.4</ele>
        <time>2013-01-12T18:34:54Z</time>
      </trkpt>
      <trkpt lat="59.4898611" lon="17.8676686">
        <ele>24</ele>
        <time>2013-01-12T18:34:55Z</time>
      </trkpt>
      <trkpt lat="59.4897295" lon="17.867682">
        <ele>23.8</ele>
        <time>2013-01-12T18:34:57Z</time>
      </trkpt>
      <trkpt lat="59.4896078" lon="17.8676828">
        <ele>22.2</ele>
        <time>2013-01-12T18:34:59Z</time>
      </trkpt>
      <trkpt lat="59.4894915" lon="17.8676991">
        <ele>20.6</ele>
        <time>2013-01-12T18:35:01Z</time>
      </trkpt>
      <trkpt lat="59.4893845" lon="17.8677228">
        <ele>19.2</ele>
        <time>2013-01-12T18:35:03Z</time>
      </trkpt>
      <trkpt lat="59.4892701" lon="17.8677188">
        <ele>17.6</ele>
        <time>2013-01-12T18:35:05Z</time>
      </trkpt>
      <trkpt lat="59.4892185" lon="17.8677063">
        <ele>16.8</ele>
        <time>2013-01-12T18:35:06Z</time>
      </trkpt>
      <trkpt lat="59.489066" lon="17.8676151">
        <ele>15.4</ele>
        <time>2013-01-12T18:35:09Z</time>
      </trkpt>
      <trkpt lat="59.4889784" lon="17.8675824">
        <ele>15.6</ele>
        <time>2013-01-12T18:35:11Z</time>
      </trkpt>
      <trkpt lat="59.4889003" lon="17.8675725">
        <ele>16.2</ele>
        <time>2013-01-12T18:35:13Z</time>
      </trkpt>
      <trkpt lat="59.488866" lon="17.8675711">
        <ele>17.4</ele>
        <time>2013-01-12T18:35:14Z</time>
      </trkpt>
      <trkpt lat="59.4886905" lon="17.867661">
        <ele>18.8</ele>
        <time>2013-01-12T18:35:19Z</time>
      </trkpt>
      <trkpt lat="59.4885495" lon="17.8677213">
        <ele>18.8</ele>
        <time>2013-01-12T18:35:22Z</time>
      </trkpt>
      <trkpt lat="59.4884955" lon="17.8677213">
        <ele>18.8</ele>
        <time>2013-01-12T18:35:23Z</time>
      </trkpt>
      <trkpt lat="59.4883521" lon="17.8677181">
        <ele>18.4</ele>
        <time>2013-01-12T18:35:26Z</time>
      </trkpt>
      <trkpt lat="59.4883039" lon="17.8677142">
        <ele>18.4</ele>
        <time>2013-01-12T18:35:27Z</time>
      </trkpt>
      <trkpt lat="59.4881124" lon="17.8676794">
        <ele>17.8</ele>
        <time>2013-01-12T18:35:31Z</time>
      </trkpt>
      <trkpt lat="59.4878997" lon="17.8675741">
        <ele>16.4</ele>
        <time>2013-01-12T18:35:36Z</time>
      </trkpt>
      <trkpt lat="59.4878555" lon="17.8675524">
        <ele>16</ele>
        <time>2013-01-12T18:35:37Z</time>
      </trkpt>
      <trkpt lat="59.4877221" lon="17.8674986">
        <ele>15.6</ele>
        <time>2013-01-12T18:35:40Z</time>
      </trkpt>
      <trkpt lat="59.4876373" lon="17.867496">
        <ele>16.2</ele>
        <time>2013-01-12T18:35:42Z</time>
      </trkpt>
      <trkpt lat="59.4875293" lon="17.8675867">
        <ele>16.8</ele>
        <time>2013-01-12T18:35:45Z</time>
      </trkpt>
      <trkpt lat="59.4875496" lon="17.8679504">
        <ele>19.2</ele>
        <time>2013-01-12T18:35:51Z</time>
      </trkpt>
      <trkpt lat="59.4875698" lon="17.8683127">
        <ele>21.4</ele>
        <time>2013-01-12T18:35:56Z</time>
      </trkpt>
      <trkpt lat="59.4875082" lon="17.8686559">
        <ele>22.4</ele>
        <time>2013-01-12T18:36:01Z</time>
      </trkpt>
      <trkpt lat="59.487489" lon="17.8690329">
        <ele>23.2</ele>
        <time>2013-01-12T18:36:06Z</time>
      </trkpt>
      <trkpt lat="59.4874496" lon="17.8693826">
        <ele>23.2</ele>
        <time>2013-01-12T18:36:11Z</time>
      </trkpt>
      <trkpt lat="59.4873591" lon="17.8697302">
        <ele>24.4</ele>
        <time>2013-01-12T18:36:17Z</time>
      </trkpt>
      <trkpt lat="59.4872861" lon="17.8700653">
        <ele>25</ele>
        <time>2013-01-12T18:36:22Z</time>
      </trkpt>
      <trkpt lat="59.4872188" lon="17.8704673">
        <ele>24.8</ele>
        <time>2013-01-12T18:36:27Z</time>
      </trkpt>
      <trkpt lat="59.4872369" lon="17.8707191">
        <ele>24.6</ele>
        <time>2013-01-12T18:36:31Z</time>
      </trkpt>
      <trkpt lat="59.4872809" lon="17.8708087">
        <ele>24.8</ele>
        <time>2013-01-12T18:36:33Z</time>
      </trkpt>
      <trkpt lat="59.4874684" lon="17.8709628">
        <ele>23.8</ele>
        <time>2013-01-12T18:36:38Z</time>
      </trkpt>
      <trkpt lat="59.487575" lon="17.8710817">
        <ele>23.8</ele>
        <time>2013-01-12T18:36:40Z</time>
      </trkpt>
      <trkpt lat="59.4876627" lon="17.8712055">
        <ele>23.6</ele>
        <time>2013-01-12T18:36:42Z</time>
      </trkpt>
      <trkpt lat="59.487705" lon="17.8712512">
        <ele>24</ele>
        <time>2013-01-12T18:36:43Z</time>
      </trkpt>
      <trkpt lat="59.4878683" lon="17.871364">
        <ele>24.6</ele>
        <time>2013-01-12T18:36:47Z</time>
      </trkpt>
      <trkpt lat="59.4880078" lon="17.87167">
        <ele>25.6</ele>
        <time>2013-01-12T18:36:51Z</time>
      </trkpt>
      <trkpt lat="59.4880346" lon="17.8717525">
        <ele>26.2</ele>
        <time>2013-01-12T18:36:52Z</time>
      </trkpt>
      <trkpt lat="59.4881014" lon="17.8720142">
        <ele>26.4</ele>
        <time>2013-01-12T18:36:55Z</time>
      </trkpt>
      <trkpt lat="59.4881636" lon="17.8722638">
        <ele>25.6</ele>
        <time>2013-01-12T18:36:58Z</time>
      </trkpt>
      <trkpt lat="59.4881884" lon="17.8723518">
        <ele>25.6</ele>
        <time>2013-01-12T18:36:59Z</time>
      </trkpt>
      <trkpt lat="59.4882362" lon="17.8725343">
        <ele>25.2</ele>
        <time>2013-01-12T18:37:01Z</time>
      </trkpt>
      <trkpt lat="59.4882723" lon="17.8727439">
        <ele>24.6</ele>
        <time>2013-01-12T18:37:03Z</time>
      </trkpt>
      <trkpt lat="59.4883025" lon="17.8729387">
        <ele>23.6</ele>
        <time>2013-01-12T18:37:05Z</time>
      </trkpt>
      <trkpt lat="59.4883236" lon="17.8730398">
        <ele>23.4</ele>
        <time>2013-01-12T18:37:06Z</time>
      </trkpt>
      <trkpt lat="59.4883537" lon="17.8731257">
        <ele>23.6</ele>
        <time>2013-01-12T18:37:07Z</time>
      </trkpt>
      <trkpt lat="59.4885387" lon="17.8733143">
        <ele>23</ele>
        <time>2013-01-12T18:37:11Z</time>
      </trkpt>
      <trkpt lat="59.4887519" lon="17.8733786">
        <ele>22</ele>
        <time>2013-01-12T18:37:15Z</time>
      </trkpt>
      <trkpt lat="59.4888405" lon="17.873449">
        <ele>23</ele>
        <time>2013-01-12T18:37:17Z</time>
      </trkpt>
      <trkpt lat="59.4889151" lon="17.8735432">
        <ele>24</ele>
        <time>2013-01-12T18:37:19Z</time>
      </trkpt>
      <trkpt lat="59.4889409" lon="17.8736121">
        <ele>23.8</ele>
        <time>2013-01-12T18:37:20Z</time>
      </trkpt>
      <trkpt lat="59.4889955" lon="17.8739393">
        <ele>22</ele>
        <time>2013-01-12T18:37:24Z</time>
      </trkpt>
      <trkpt lat="59.4890122" lon="17.8741108">
        <ele>21.4</ele>
        <time>2013-01-12T18:37:26Z</time>
      </trkpt>
      <trkpt lat="59.4890455" lon="17.8743066">
        <ele>19.4</ele>
        <time>2013-01-12T18:37:28Z</time>
      </trkpt>
      <trkpt lat="59.4891836" lon="17.8746327">
        <ele>19.6</ele>
        <time>2013-01-12T18:37:32Z</time>
      </trkpt>
      <trkpt lat="59.4892922" lon="17.8748096">
        <ele>20.4</ele>
        <time>2013-01-12T18:37:35Z</time>
      </trkpt>
      <trkpt lat="59.4893286" lon="17.8748422">
        <ele>20.2</ele>
        <time>2013-01-12T18:37:36Z</time>
      </trkpt>
      <trkpt lat="59.4894408" lon="17.8748719">
        <ele>20.4</ele>
        <time>2013-01-12T18:37:39Z</time>
      </trkpt>
      <trkpt lat="59.4895205" lon="17.8748823">
        <ele>19.8</ele>
        <time>2013-01-12T18:37:41Z</time>
      </trkpt>
      <trkpt lat="59.4896081" lon="17.8748911">
        <ele>19.2</ele>
        <time>2013-01-12T18:37:43Z</time>
      </trkpt>
      <trkpt lat="59.4896943" lon="17.8749565">
        <ele>19.6</ele>
        <time>2013-01-12T18:37:45Z</time>
      </trkpt>
      <trkpt lat="59.4897312" lon="17.8749948">
        <ele>20.2</ele>
        <time>2013-01-12T18:37:46Z</time>
      </trkpt>
      <trkpt lat="59.4898305" lon="17.8752454">
        <ele>19.4</ele>
        <time>2013-01-12T18:37:50Z</time>
      </trkpt>
      <trkpt lat="59.4899071" lon="17.8755848">
        <ele>18.8</ele>
        <time>2013-01-12T18:37:55Z</time>
      </trkpt>
      <trkpt lat="59.4900422" lon="17.8758547">
        <ele>17.8</ele>
        <time>2013-01-12T18:38:00Z</time>
      </trkpt>
      <trkpt lat="59.4901111" lon="17.876096">
        <ele>16.8</ele>
        <time>2013-01-12T18:38:03Z</time>
      </trkpt>
      <trkpt lat="59.4901339" lon="17.8761845">
        <ele>16.6</ele>
        <time>2013-01-12T18:38:04Z</time>
      </trkpt>
      <trkpt lat="59.4902801" lon="17.8764326">
        <ele>16.2</ele>
        <time>2013-01-12T18:38:08Z</time>
      </trkpt>
      <trkpt lat="59.4903154" lon="17.8764752">
        <ele>16.4</ele>
        <time>2013-01-12T18:38:09Z</time>
      </trkpt>
      <trkpt lat="59.4903575" lon="17.8767524">
        <ele>16.8</ele>
        <time>2013-01-12T18:38:13Z</time>
      </trkpt>
      <trkpt lat="59.4902453" lon="17.877004">
        <ele>11.2</ele>
        <time>2013-01-12T18:38:17Z</time>
      </trkpt>
      <trkpt lat="59.4902131" lon="17.8770573">
        <ele>10.4</ele>
        <time>2013-01-12T18:38:18Z</time>
      </trkpt>
      <trkpt lat="59.4901774" lon="17.8770994">
        <ele>9</ele>
        <time>2013-01-12T18:38:19Z</time>
      </trkpt>
      <trkpt lat="59.490105" lon="17.8771574">
        <ele>7.6</ele>
        <time>2013-01-12T18:38:21Z</time>
      </trkpt>
      <trkpt lat="59.4900263" lon="17.8771986">
        <ele>6</ele>
        <time>2013-01-12T18:38:23Z</time>
      </trkpt>
      <trkpt lat="59.4898459" lon="17.8772257">
        <ele>2.6</ele>
        <time>2013-01-12T18:38:28Z</time>
      </trkpt>
      <trkpt lat="59.4896317" lon="17.8771777">
        <ele>2.8</ele>
        <time>2013-01-12T18:38:33Z</time>
      </trkpt>
      <trkpt lat="59.4895886" lon="17.8771687">
        <ele>2.6</ele>
        <time>2013-01-12T18:38:34Z</time>
      </trkpt>
      <trkpt lat="59.4894518" lon="17.8771148">
        <ele>2.2</ele>
        <time>2013-01-12T18:38:37Z</time>
      </trkpt>
      <trkpt lat="59.4894104" lon="17.8770849">
        <ele>2</ele>
        <time>2013-01-12T18:38:38Z</time>
      </trkpt>
      <trkpt lat="59.4892674" lon="17.8769265">
        <ele>2.6</ele>
        <time>2013-01-12T18:38:42Z</time>
      </trkpt>
      <trkpt lat="59.4891991" lon="17.8768089">
        <ele>2.4</ele>
        <time>2013-01-12T18:38:44Z</time>
      </trkpt>
      <trkpt lat="59.48913" lon="17.8766963">
        <ele>3</ele>
        <time>2013-01-12T18:38:46Z</time>
      </trkpt>
      <trkpt lat="59.4890939" lon="17.8766522">
        <ele>3.2</ele>
        <time>2013-01-12T18:38:47Z</time>
      </trkpt>
      <trkpt lat="59.4889498" lon="17.8765739">
        <ele>5</ele>
        <time>2013-01-12T18:38:51Z</time>
      </trkpt>
      <trkpt lat="59.488809" lon="17.8766236">
        <ele>6.2</ele>
        <time>2013-01-12T18:38:55Z</time>
      </trkpt>
      <trkpt lat="59.4887721" lon="17.8766553">
        <ele>6.4</ele>
        <time>2013-01-12T18:38:56Z</time>
      </trkpt>
      <trkpt lat="59.4886024" lon="17.876801">
        <ele>7.4</ele>
        <time>2013-01-12T18:39:01Z</time>
      </trkpt>
      <trkpt lat="59.4884099" lon="17.8767828">
        <ele>8.2</ele>
        <time>2013-01-12T18:39:06Z</time>
      </trkpt>
      <trkpt lat="59.4882626" lon="17.876957">
        <ele>9</ele>
        <time>2013-01-12T18:39:11Z</time>
      </trkpt>
      <trkpt lat="59.4882153" lon="17.8773314">
        <ele>10.4</ele>
        <time>2013-01-12T18:39:16Z</time>
      </trkpt>
      <trkpt lat="59.4882066" lon="17.8777085">
        <ele>11.4</ele>
        <time>2013-01-12T18:39:21Z</time>
      </trkpt>
      <trkpt lat="59.488222" lon="17.8779819">
        <ele>11.2</ele>
        <time>2013-01-12T18:39:25Z</time>
      </trkpt>
      <trkpt lat="59.4881931" lon="17.8781143">
        <ele>10.6</ele>
        <time>2013-01-12T18:39:27Z</time>
      </trkpt>
      <trkpt lat="59.4880914" lon="17.8782374">
        <ele>9.6</ele>
        <time>2013-01-12T18:39:31Z</time>
      </trkpt>
      <trkpt lat="59.4880217" lon="17.8781996">
        <ele>9</ele>
        <time>2013-01-12T18:39:33Z</time>
      </trkpt>
      <trkpt lat="59.4878638" lon="17.8779671">
        <ele>7</ele>
        <time>2013-01-12T18:39:39Z</time>
      </trkpt>
      <trkpt lat="59.4876839" lon="17.8778117">
        <ele>6.8</ele>
        <time>2013-01-12T18:39:45Z</time>
      </trkpt>
      <trkpt lat="59.4875627" lon="17.8775273">
        <ele>7.2</ele>
        <time>2013-01-12T18:39:51Z</time>
      </trkpt>
      <trkpt lat="59.4874529" lon="17.8771937">
        <ele>6.2</ele>
        <time>2013-01-12T18:39:56Z</time>
      </trkpt>
      <trkpt lat="59.4873325" lon="17.8768446">
        <ele>5.2</ele>
        <time>2013-01-12T18:40:01Z</time>
      </trkpt>
      <trkpt lat="59.4873097" lon="17.876783">
        <ele>5</ele>
        <time>2013-01-12T18:40:02Z</time>
      </trkpt>
      <trkpt lat="59.4872374" lon="17.8766285">
        <ele>4.6</ele>
        <time>2013-01-12T18:40:05Z</time>
      </trkpt>
      <trkpt lat="59.4872078" lon="17.8765809">
        <ele>5</ele>
        <time>2013-01-12T18:40:06Z</time>
      </trkpt>
      <trkpt lat="59.487054" lon="17.8763115">
        <ele>5.8</ele>
        <time>2013-01-12T18:40:11Z</time>
      </trkpt>
      <trkpt lat="59.4869232" lon="17.8760639">
        <ele>6.2</ele>
        <time>2013-01-12T18:40:15Z</time>
      </trkpt>
      <trkpt lat="59.4868305" lon="17.8759059">
        <ele>6.2</ele>
        <time>2013-01-12T18:40:18Z</time>
      </trkpt>
      <trkpt lat="59.4867702" lon="17.875806">
        <ele>6.2</ele>
        <time>2013-01-12T18:40:20Z</time>
      </trkpt>
      <trkpt lat="59.4866961" lon="17.8756485">
        <ele>5.8</ele>
        <time>2013-01-12T18:40:23Z</time>
      </trkpt>
      <trkpt lat="59.486623" lon="17.8754983">
        <ele>6.2</ele>
        <time>2013-01-12T18:40:26Z</time>
      </trkpt>
      <trkpt lat="59.4864837" lon="17.8752079">
        <ele>8.6</ele>
        <time>2013-01-12T18:40:32Z</time>
      </trkpt>
      <trkpt lat="59.4863438" lon="17.8749279">
        <ele>9.6</ele>
        <time>2013-01-12T18:40:38Z</time>
      </trkpt>
      <trkpt lat="59.4861475" lon="17.8748036">
        <ele>12</ele>
        <time>2013-01-12T18:40:44Z</time>
      </trkpt>
      <trkpt lat="59.4859406" lon="17.8749185">
        <ele>14.8</ele>
        <time>2013-01-12T18:40:50Z</time>
      </trkpt>
      <trkpt lat="59.4857567" lon="17.8750947">
        <ele>15</ele>
        <time>2013-01-12T18:40:55Z</time>
      </trkpt>
      <trkpt lat="59.4856006" lon="17.8753287">
        <ele>15.2</ele>
        <time>2013-01-12T18:41:00Z</time>
      </trkpt>
      <trkpt lat="59.4854519" lon="17.8755734">
        <ele>16.2</ele>
        <time>2013-01-12T18:41:05Z</time>
      </trkpt>
      <trkpt lat="59.4853367" lon="17.8758703">
        <ele>15.4</ele>
        <time>2013-01-12T18:41:10Z</time>
      </trkpt>
      <trkpt lat="59.4852456" lon="17.8762037">
        <ele>15.6</ele>
        <time>2013-01-12T18:41:15Z</time>
      </trkpt>
      <trkpt lat="59.4853105" lon="17.8765742">
        <ele>13.6</ele>
        <time>2013-01-12T18:41:21Z</time>
      </trkpt>
      <trkpt lat="59.4855111" lon="17.8767172">
        <ele>12.2</ele>
        <time>2013-01-12T18:41:27Z</time>
      </trkpt>
      <trkpt lat="59.4856878" lon="17.8768533">
        <ele>12.4</ele>
        <time>2013-01-12T18:41:32Z</time>
      </trkpt>
      <trkpt lat="59.485876" lon="17.8770289">
        <ele>12.8</ele>
        <time>2013-01-12T18:41:37Z</time>
      </trkpt>
      <trkpt lat="59.486051" lon="17.8772413">
        <ele>13.8</ele>
        <time>2013-01-12T18:41:42Z</time>
      </trkpt>
      <trkpt lat="59.4862205" lon="17.8773273">
        <ele>14.6</ele>
        <time>2013-01-12T18:41:46Z</time>
      </trkpt>
      <trkpt lat="59.4862683" lon="17.8773552">
        <ele>14.6</ele>
        <time>2013-01-12T18:41:47Z</time>
      </trkpt>
      <trkpt lat="59.4863619" lon="17.8774198">
        <ele>14.8</ele>
        <time>2013-01-12T18:41:49Z</time>
      </trkpt>
      <trkpt lat="59.4864448" lon="17.8775008">
        <ele>15.8</ele>
        <time>2013-01-12T18:41:51Z</time>
      </trkpt>
      <trkpt lat="59.4864811" lon="17.8775418">
        <ele>16.4</ele>
        <time>2013-01-12T18:41:52Z</time>
      </trkpt>
      <trkpt lat="59.4865904" lon="17.8776676">
        <ele>18</ele>
        <time>2013-01-12T18:41:55Z</time>
      </trkpt>
      <trkpt lat="59.4866292" lon="17.877707">
        <ele>19.2</ele>
        <time>2013-01-12T18:41:56Z</time>
      </trkpt>
      <trkpt lat="59.4867603" lon="17.8778553">
        <ele>22.4</ele>
        <time>2013-01-12T18:41:59Z</time>
      </trkpt>
      <trkpt lat="59.4868048" lon="17.8779044">
        <ele>23.2</ele>
        <time>2013-01-12T18:42:00Z</time>
      </trkpt>
      <trkpt lat="59.4869805" lon="17.8780585">
        <ele>25.2</ele>
        <time>2013-01-12T18:42:04Z</time>
      </trkpt>
      <trkpt lat="59.4870489" lon="17.8781369">
        <ele>24.8</ele>
        <time>2013-01-12T18:42:06Z</time>
      </trkpt>
      <trkpt lat="59.4870802" lon="17.878171">
        <ele>23.4</ele>
        <time>2013-01-12T18:42:07Z</time>
      </trkpt>
      <trkpt lat="59.4871501" lon="17.8781923">
        <ele>22</ele>
        <time>2013-01-12T18:42:09Z</time>
      </trkpt>
      <trkpt lat="59.4872819" lon="17.8780386">
        <ele>15.8</ele>
        <time>2013-01-12T18:42:14Z</time>
      </trkpt>
      <trkpt lat="59.4873161" lon="17.8779785">
        <ele>15.4</ele>
        <time>2013-01-12T18:42:15Z</time>
      </trkpt>
      <trkpt lat="59.487518" lon="17.8777719">
        <ele>14.2</ele>
        <time>2013-01-12T18:42:20Z</time>
      </trkpt>
      <trkpt lat="59.487683" lon="17.877712">
        <ele>13</ele>
        <time>2013-01-12T18:42:23Z</time>
      </trkpt>
      <trkpt lat="59.4877376" lon="17.8777113">
        <ele>12.8</ele>
        <time>2013-01-12T18:42:24Z</time>
      </trkpt>
      <trkpt lat="59.4879112" lon="17.8778938">
        <ele>13.2</ele>
        <time>2013-01-12T18:42:28Z</time>
      </trkpt>
      <trkpt lat="59.4879766" lon="17.8780442">
        <ele>13.2</ele>
        <time>2013-01-12T18:42:30Z</time>
      </trkpt>
      <trkpt lat="59.4880157" lon="17.8781105">
        <ele>13.2</ele>
        <time>2013-01-12T18:42:31Z</time>
      </trkpt>
      <trkpt lat="59.4880618" lon="17.8781582">
        <ele>13.6</ele>
        <time>2013-01-12T18:42:32Z</time>
      </trkpt>
      <trkpt lat="59.4882439" lon="17.8781953">
        <ele>12.4</ele>
        <time>2013-01-12T18:42:36Z</time>
      </trkpt>
      <trkpt lat="59.4884374" lon="17.8783802">
        <ele>13.2</ele>
        <time>2013-01-12T18:42:41Z</time>
      </trkpt>
      <trkpt lat="59.4884713" lon="17.8784239">
        <ele>14</ele>
        <time>2013-01-12T18:42:42Z</time>
      </trkpt>
      <trkpt lat="59.4885068" lon="17.8784714">
        <ele>14.6</ele>
        <time>2013-01-12T18:42:43Z</time>
      </trkpt>
      <trkpt lat="59.4886319" lon="17.8785856">
        <ele>15.8</ele>
        <time>2013-01-12T18:42:46Z</time>
      </trkpt>
      <trkpt lat="59.4887185" lon="17.8786522">
        <ele>16.2</ele>
        <time>2013-01-12T18:42:48Z</time>
      </trkpt>
      <trkpt lat="59.4888314" lon="17.8787228">
        <ele>17</ele>
        <time>2013-01-12T18:42:51Z</time>
      </trkpt>
      <trkpt lat="59.4888986" lon="17.878771">
        <ele>16.2</ele>
        <time>2013-01-12T18:42:53Z</time>
      </trkpt>
      <trkpt lat="59.488952" lon="17.8789682">
        <ele>15</ele>
        <time>2013-01-12T18:42:57Z</time>
      </trkpt>
      <trkpt lat="59.4887741" lon="17.8790466">
        <ele>11</ele>
        <time>2013-01-12T18:43:04Z</time>
      </trkpt>
      <trkpt lat="59.4885912" lon="17.8790734">
        <ele>10</ele>
        <time>2013-01-12T18:43:09Z</time>
      </trkpt>
      <trkpt lat="59.4883947" lon="17.8791471">
        <ele>8.8</ele>
        <time>2013-01-12T18:43:14Z</time>
      </trkpt>
      <trkpt lat="59.4882132" lon="17.8793499">
        <ele>7.6</ele>
        <time>2013-01-12T18:43:19Z</time>
      </trkpt>
      <trkpt lat="59.4881789" lon="17.879402">
        <ele>7.4</ele>
        <time>2013-01-12T18:43:20Z</time>
      </trkpt>
      <trkpt lat="59.4880972" lon="17.8795724">
        <ele>6.6</ele>
        <time>2013-01-12T18:43:23Z</time>
      </trkpt>
      <trkpt lat="59.4880774" lon="17.879635">
        <ele>6.2</ele>
        <time>2013-01-12T18:43:24Z</time>
      </trkpt>
      <trkpt lat="59.4879821" lon="17.8799548">
        <ele>5.6</ele>
        <time>2013-01-12T18:43:29Z</time>
      </trkpt>
      <trkpt lat="59.4879617" lon="17.8800308">
        <ele>5.8</ele>
        <time>2013-01-12T18:43:30Z</time>
      </trkpt>
      <trkpt lat="59.4879069" lon="17.8803255">
        <ele>7</ele>
        <time>2013-01-12T18:43:34Z</time>
      </trkpt>
      <trkpt lat="59.4878347" lon="17.880696">
        <ele>8.6</ele>
        <time>2013-01-12T18:43:40Z</time>
      </trkpt>
      <trkpt lat="59.4877596" lon="17.8810602">
        <ele>10</ele>
        <time>2013-01-12T18:43:46Z</time>
      </trkpt>
      <trkpt lat="59.4876742" lon="17.8813243">
        <ele>10</ele>
        <time>2013-01-12T18:43:50Z</time>
      </trkpt>
      <trkpt lat="59.4876436" lon="17.8813624">
        <ele>10</ele>
        <time>2013-01-12T18:43:51Z</time>
      </trkpt>
      <trkpt lat="59.4874617" lon="17.8814986">
        <ele>8.4</ele>
        <time>2013-01-12T18:43:56Z</time>
      </trkpt>
      <trkpt lat="59.487371" lon="17.881504">
        <ele>7.6</ele>
        <time>2013-01-12T18:43:58Z</time>
      </trkpt>
      <trkpt lat="59.4872727" lon="17.8814694">
        <ele>7.2</ele>
        <time>2013-01-12T18:44:00Z</time>
      </trkpt>
      <trkpt lat="59.4871865" lon="17.8814289">
        <ele>6.4</ele>
        <time>2013-01-12T18:44:02Z</time>
      </trkpt>
      <trkpt lat="59.4870674" lon="17.8813621">
        <ele>5.6</ele>
        <time>2013-01-12T18:44:05Z</time>
      </trkpt>
      <trkpt lat="59.4870301" lon="17.8813305">
        <ele>5.4</ele>
        <time>2013-01-12T18:44:06Z</time>
      </trkpt>
      <trkpt lat="59.4869141" lon="17.8812519">
        <ele>5.2</ele>
        <time>2013-01-12T18:44:09Z</time>
      </trkpt>
      <trkpt lat="59.4868742" lon="17.8812207">
        <ele>5.2</ele>
        <time>2013-01-12T18:44:10Z</time>
      </trkpt>
      <trkpt lat="59.4868383" lon="17.8811959">
        <ele>5.2</ele>
        <time>2013-01-12T18:44:11Z</time>
      </trkpt>
      <trkpt lat="59.4866955" lon="17.8811408">
        <ele>5.4</ele>
        <time>2013-01-12T18:44:15Z</time>
      </trkpt>
      <trkpt lat="59.4865309" lon="17.8811272">
        <ele>6.6</ele>
        <time>2013-01-12T18:44:20Z</time>
      </trkpt>
      <trkpt lat="59.4865035" lon="17.8811311">
        <ele>7</ele>
        <time>2013-01-12T18:44:21Z</time>
      </trkpt>
      <trkpt lat="59.4863032" lon="17.8810887">
        <ele>7.6</ele>
        <time>2013-01-12T18:44:28Z</time>
      </trkpt>
      <trkpt lat="59.4861108" lon="17.8810315">
        <ele>8</ele>
        <time>2013-01-12T18:44:34Z</time>
      </trkpt>
      <trkpt lat="59.4859561" lon="17.8810346">
        <ele>9.8</ele>
        <time>2013-01-12T18:44:39Z</time>
      </trkpt>
      <trkpt lat="59.4859132" lon="17.881074">
        <ele>10.6</ele>
        <time>2013-01-12T18:44:41Z</time>
      </trkpt>
      <trkpt lat="59.4858456" lon="17.8811861">
        <ele>11.8</ele>
        <time>2013-01-12T18:44:45Z</time>
      </trkpt>
      <trkpt lat="59.4857875" lon="17.8814081">
        <ele>11.8</ele>
        <time>2013-01-12T18:44:48Z</time>
      </trkpt>
      <trkpt lat="59.4857373" lon="17.8818212">
        <ele>11.6</ele>
        <time>2013-01-12T18:44:53Z</time>
      </trkpt>
      <trkpt lat="59.485748" lon="17.8822172">
        <ele>10.2</ele>
        <time>2013-01-12T18:44:58Z</time>
      </trkpt>
      <trkpt lat="59.4857449" lon="17.8823069">
        <ele>10.6</ele>
        <time>2013-01-12T18:44:59Z</time>
      </trkpt>
      <trkpt lat="59.4857289" lon="17.8826218">
        <ele>12</ele>
        <time>2013-01-12T18:45:03Z</time>
      </trkpt>
      <trkpt lat="59.4857346" lon="17.8828641">
        <ele>11.8</ele>
        <time>2013-01-12T18:45:06Z</time>
      </trkpt>
      <trkpt lat="59.4857412" lon="17.8830404">
        <ele>11.2</ele>
        <time>2013-01-12T18:45:08Z</time>
      </trkpt>
      <trkpt lat="59.4857744" lon="17.8832964">
        <ele>10.6</ele>
        <time>2013-01-12T18:45:11Z</time>
      </trkpt>
      <trkpt lat="59.4858039" lon="17.8834595">
        <ele>9.8</ele>
        <time>2013-01-12T18:45:13Z</time>
      </trkpt>
      <trkpt lat="59.4858583" lon="17.8837815">
        <ele>7.8</ele>
        <time>2013-01-12T18:45:17Z</time>
      </trkpt>
      <trkpt lat="59.4858625" lon="17.8838693">
        <ele>7.6</ele>
        <time>2013-01-12T18:45:18Z</time>
      </trkpt>
      <trkpt lat="59.48579" lon="17.8842258">
        <ele>6.2</ele>
        <time>2013-01-12T18:45:23Z</time>
      </trkpt>
      <trkpt lat="59.4857552" lon="17.884279">
        <ele>5.6</ele>
        <time>2013-01-12T18:45:24Z</time>
      </trkpt>
      <trkpt lat="59.4856787" lon="17.8843783">
        <ele>4</ele>
        <time>2013-01-12T18:45:26Z</time>
      </trkpt>
      <trkpt lat="59.4856341" lon="17.8844137">
        <ele>3.4</ele>
        <time>2013-01-12T18:45:27Z</time>
      </trkpt>
      <trkpt lat="59.4854413" lon="17.8845089">
        <ele>1.6</ele>
        <time>2013-01-12T18:45:31Z</time>
      </trkpt>
      <trkpt lat="59.4853901" lon="17.8845286">
        <ele>1.2</ele>
        <time>2013-01-12T18:45:32Z</time>
      </trkpt>
      <trkpt lat="59.4852922" lon="17.8845607">
        <ele>0.2</ele>
        <time>2013-01-12T18:45:34Z</time>
      </trkpt>
      <trkpt lat="59.4852423" lon="17.8845676">
        <ele>0</ele>
        <time>2013-01-12T18:45:35Z</time>
      </trkpt>
      <trkpt lat="59.4851926" lon="17.8845805">
        <ele>0</ele>
        <time>2013-01-12T18:45:36Z</time>
      </trkpt>
      <trkpt lat="59.4850943" lon="17.8846051">
        <ele>0</ele>
        <time>2013-01-12T18:45:38Z</time>
      </trkpt>
      <trkpt lat="59.4850404" lon="17.8846089">
        <ele>0</ele>
        <time>2013-01-12T18:45:39Z</time>
      </trkpt>
      <trkpt lat="59.4849061" lon="17.8846136">
        <ele>0</ele>
        <time>2013-01-12T18:45:42Z</time>
      </trkpt>
      <trkpt lat="59.4848189" lon="17.88461">
        <ele>0</ele>
        <time>2013-01-12T18:45:44Z</time>
      </trkpt>
      <trkpt lat="59.4847826" lon="17.884616">
        <ele>0</ele>
        <time>2013-01-12T18:45:45Z</time>
      </trkpt>
      <trkpt lat="59.4846218" lon="17.8846415">
        <ele>0</ele>
        <time>2013-01-12T18:45:50Z</time>
      </trkpt>
      <trkpt lat="59.4845472" lon="17.884653">
        <ele>0</ele>
        <time>2013-01-12T18:45:52Z</time>
      </trkpt>
      <trkpt lat="59.4844298" lon="17.8846842">
        <ele>0</ele>
        <time>2013-01-12T18:45:55Z</time>
      </trkpt>
      <trkpt lat="59.4842282" lon="17.8847074">
        <ele>0.4</ele>
        <time>2013-01-12T18:46:00Z</time>
      </trkpt>
      <trkpt lat="59.4840336" lon="17.8847183">
        <ele>1.6</ele>
        <time>2013-01-12T18:46:05Z</time>
      </trkpt>
      <trkpt lat="59.4839085" lon="17.884781">
        <ele>2.6</ele>
        <time>2013-01-12T18:46:08Z</time>
      </trkpt>
      <trkpt lat="59.4838465" lon="17.8848649">
        <ele>2.6</ele>
        <time>2013-01-12T18:46:10Z</time>
      </trkpt>
      <trkpt lat="59.4837133" lon="17.8851285">
        <ele>2.4</ele>
        <time>2013-01-12T18:46:14Z</time>
      </trkpt>
      <trkpt lat="59.4835843" lon="17.8853782">
        <ele>2.4</ele>
        <time>2013-01-12T18:46:17Z</time>
      </trkpt>
      <trkpt lat="59.4834267" lon="17.8857243">
        <ele>4</ele>
        <time>2013-01-12T18:46:21Z</time>
      </trkpt>
      <trkpt lat="59.4833274" lon="17.8859443">
        <ele>4.6</ele>
        <time>2013-01-12T18:46:24Z</time>
      </trkpt>
      <trkpt lat="59.4833025" lon="17.8860143">
        <ele>4.4</ele>
        <time>2013-01-12T18:46:25Z</time>
      </trkpt>
      <trkpt lat="59.4832482" lon="17.8861607">
        <ele>4.8</ele>
        <time>2013-01-12T18:46:27Z</time>
      </trkpt>
      <trkpt lat="59.4831891" lon="17.8862973">
        <ele>4.2</ele>
        <time>2013-01-12T18:46:29Z</time>
      </trkpt>
      <trkpt lat="59.4830031" lon="17.8863671">
        <ele>3.2</ele>
        <time>2013-01-12T18:46:34Z</time>
      </trkpt>
      <trkpt lat="59.4828836" lon="17.8862222">
        <ele>2</ele>
        <time>2013-01-12T18:46:38Z</time>
      </trkpt>
      <trkpt lat="59.4828279" lon="17.8861188">
        <ele>1.8</ele>
        <time>2013-01-12T18:46:40Z</time>
      </trkpt>
      <trkpt lat="59.4827696" lon="17.8857319">
        <ele>2</ele>
        <time>2013-01-12T18:46:46Z</time>
      </trkpt>
      <trkpt lat="59.4827312" lon="17.8853519">
        <ele>0.4</ele>
        <time>2013-01-12T18:46:52Z</time>
      </trkpt>
      <trkpt lat="59.4827437" lon="17.8849907">
        <ele>2</ele>
        <time>2013-01-12T18:46:58Z</time>
      </trkpt>
      <trkpt lat="59.4827507" lon="17.8845991">
        <ele>2.2</ele>
        <time>2013-01-12T18:47:04Z</time>
      </trkpt>
      <trkpt lat="59.4827503" lon="17.8842271">
        <ele>3.2</ele>
        <time>2013-01-12T18:47:11Z</time>
      </trkpt>
      <trkpt lat="59.4827696" lon="17.8838418">
        <ele>6.2</ele>
        <time>2013-01-12T18:47:19Z</time>
      </trkpt>
      <trkpt lat="59.4828198" lon="17.8835016">
        <ele>8</ele>
        <time>2013-01-12T18:47:26Z</time>
      </trkpt>
      <trkpt lat="59.482817" lon="17.8831351">
        <ele>8.8</ele>
        <time>2013-01-12T18:47:31Z</time>
      </trkpt>
      <trkpt lat="59.4828527" lon="17.882785">
        <ele>11.4</ele>
        <time>2013-01-12T18:47:39Z</time>
      </trkpt>
      <trkpt lat="59.4829349" lon="17.882437">
        <ele>13.6</ele>
        <time>2013-01-12T18:47:49Z</time>
      </trkpt>
      <trkpt lat="59.4829793" lon="17.8820374">
        <ele>15</ele>
        <time>2013-01-12T18:47:57Z</time>
      </trkpt>
      <trkpt lat="59.4830216" lon="17.8816278">
        <ele>16.2</ele>
        <time>2013-01-12T18:48:04Z</time>
      </trkpt>
      <trkpt lat="59.4831035" lon="17.8812482">
        <ele>16.2</ele>
        <time>2013-01-12T18:48:09Z</time>
      </trkpt>
      <trkpt lat="59.4831678" lon="17.8809119">
        <ele>15.8</ele>
        <time>2013-01-12T18:48:14Z</time>
      </trkpt>
      <trkpt lat="59.4832342" lon="17.8805508">
        <ele>14.8</ele>
        <time>2013-01-12T18:48:19Z</time>
      </trkpt>
      <trkpt lat="59.4832689" lon="17.8801912">
        <ele>14.8</ele>
        <time>2013-01-12T18:48:24Z</time>
      </trkpt>
      <trkpt lat="59.4832995" lon="17.8798135">
        <ele>15.8</ele>
        <time>2013-01-12T18:48:30Z</time>
      </trkpt>
      <trkpt lat="59.483307" lon="17.8794409">
        <ele>16.6</ele>
        <time>2013-01-12T18:48:35Z</time>
      </trkpt>
      <trkpt lat="59.4832882" lon="17.8790901">
        <ele>15.6</ele>
        <time>2013-01-12T18:48:39Z</time>
      </trkpt>
      <trkpt lat="59.4833141" lon="17.8788216">
        <ele>15.4</ele>
        <time>2013-01-12T18:48:42Z</time>
      </trkpt>
      <trkpt lat="59.4833373" lon="17.8787508">
        <ele>16</ele>
        <time>2013-01-12T18:48:43Z</time>
      </trkpt>
      <trkpt lat="59.483432" lon="17.8785524">
        <ele>16.4</ele>
        <time>2013-01-12T18:48:46Z</time>
      </trkpt>
      <trkpt lat="59.4834676" lon="17.8784865">
        <ele>16.6</ele>
        <time>2013-01-12T18:48:47Z</time>
      </trkpt>
      <trkpt lat="59.4836016" lon="17.8782437">
        <ele>17.2</ele>
        <time>2013-01-12T18:48:51Z</time>
      </trkpt>
      <trkpt lat="59.4837288" lon="17.8779532">
        <ele>18.2</ele>
        <time>2013-01-12T18:48:55Z</time>
      </trkpt>
      <trkpt lat="59.4837821" lon="17.8778088">
        <ele>17.8</ele>
        <time>2013-01-12T18:48:57Z</time>
      </trkpt>
      <trkpt lat="59.4838175" lon="17.8775759">
        <ele>17.4</ele>
        <time>2013-01-12T18:49:00Z</time>
      </trkpt>
      <trkpt lat="59.4836544" lon="17.8774158">
        <ele>16.4</ele>
        <time>2013-01-12T18:49:05Z</time>
      </trkpt>
      <trkpt lat="59.4836087" lon="17.8774321">
        <ele>16.6</ele>
        <time>2013-01-12T18:49:06Z</time>
      </trkpt>
      <trkpt lat="59.4835657" lon="17.877453">
        <ele>16.8</ele>
        <time>2013-01-12T18:49:07Z</time>
      </trkpt>
      <trkpt lat="59.4834331" lon="17.8774791">
        <ele>16.4</ele>
        <time>2013-01-12T18:49:10Z</time>
      </trkpt>
      <trkpt lat="59.4833503" lon="17.8774817">
        <ele>16.6</ele>
        <time>2013-01-12T18:49:12Z</time>
      </trkpt>
      <trkpt lat="59.483264" lon="17.8774862">
        <ele>16.2</ele>
        <time>2013-01-12T18:49:14Z</time>
      </trkpt>
      <trkpt lat="59.4832238" lon="17.8774921">
        <ele>16</ele>
        <time>2013-01-12T18:49:15Z</time>
      </trkpt>
      <trkpt lat="59.483148" lon="17.8775157">
        <ele>15.8</ele>
        <time>2013-01-12T18:49:17Z</time>
      </trkpt>
      <trkpt lat="59.4830372" lon="17.8775493">
        <ele>14.8</ele>
        <time>2013-01-12T18:49:20Z</time>
      </trkpt>
      <trkpt lat="59.4829732" lon="17.8775858">
        <ele>14.4</ele>
        <time>2013-01-12T18:49:22Z</time>
      </trkpt>
      <trkpt lat="59.4828603" lon="17.8777398">
        <ele>14.6</ele>
        <time>2013-01-12T18:49:26Z</time>
      </trkpt>
      <trkpt lat="59.4828121" lon="17.8778312">
        <ele>15</ele>
        <time>2013-01-12T18:49:28Z</time>
      </trkpt>
      <trkpt lat="59.4827932" lon="17.8780977">
        <ele>16</ele>
        <time>2013-01-12T18:49:33Z</time>
      </trkpt>
      <trkpt lat="59.4828436" lon="17.8784592">
        <ele>17</ele>
        <time>2013-01-12T18:49:39Z</time>
      </trkpt>
      <trkpt lat="59.4829116" lon="17.8788197">
        <ele>18</ele>
        <time>2013-01-12T18:49:45Z</time>
      </trkpt>
      <trkpt lat="59.4829829" lon="17.8792149">
        <ele>19.4</ele>
        <time>2013-01-12T18:49:51Z</time>
      </trkpt>
      <trkpt lat="59.4830094" lon="17.8795693">
        <ele>20.6</ele>
        <time>2013-01-12T18:49:56Z</time>
      </trkpt>
      <trkpt lat="59.4829918" lon="17.8799539">
        <ele>20.8</ele>
        <time>2013-01-12T18:50:01Z</time>
      </trkpt>
      <trkpt lat="59.4829432" lon="17.8803414">
        <ele>20.6</ele>
        <time>2013-01-12T18:50:06Z</time>
      </trkpt>
      <trkpt lat="59.4829083" lon="17.880582">
        <ele>20.2</ele>
        <time>2013-01-12T18:50:09Z</time>
      </trkpt>
      <trkpt lat="59.4828802" lon="17.8807634">
        <ele>19</ele>
        <time>2013-01-12T18:50:11Z</time>
      </trkpt>
      <trkpt lat="59.4828618" lon="17.8808602">
        <ele>18.6</ele>
        <time>2013-01-12T18:50:12Z</time>
      </trkpt>
      <trkpt lat="59.4828132" lon="17.8811424">
        <ele>17.4</ele>
        <time>2013-01-12T18:50:15Z</time>
      </trkpt>
      <trkpt lat="59.4827686" lon="17.8815184">
        <ele>15.8</ele>
        <time>2013-01-12T18:50:19Z</time>
      </trkpt>
      <trkpt lat="59.4827757" lon="17.8819094">
        <ele>16.6</ele>
        <time>2013-01-12T18:50:24Z</time>
      </trkpt>
      <trkpt lat="59.4827809" lon="17.8819731">
        <ele>16.8</ele>
        <time>2013-01-12T18:50:25Z</time>
      </trkpt>
      <trkpt lat="59.4827835" lon="17.8822774">
        <ele>16.8</ele>
        <time>2013-01-12T18:50:29Z</time>
      </trkpt>
      <trkpt lat="59.4827679" lon="17.8826367">
        <ele>16.4</ele>
        <time>2013-01-12T18:50:33Z</time>
      </trkpt>
      <trkpt lat="59.4827471" lon="17.882841">
        <ele>15.4</ele>
        <time>2013-01-12T18:50:35Z</time>
      </trkpt>
      <trkpt lat="59.4827079" lon="17.8830757">
        <ele>14.8</ele>
        <time>2013-01-12T18:50:37Z</time>
      </trkpt>
      <trkpt lat="59.4826497" lon="17.883444">
        <ele>14.4</ele>
        <time>2013-01-12T18:50:40Z</time>
      </trkpt>
      <trkpt lat="59.4825903" lon="17.88382">
        <ele>13.8</ele>
        <time>2013-01-12T18:50:43Z</time>
      </trkpt>
      <trkpt lat="59.4825608" lon="17.8839413">
        <ele>13.4</ele>
        <time>2013-01-12T18:50:44Z</time>
      </trkpt>
      <trkpt lat="59.4824727" lon="17.8841811">
        <ele>13.2</ele>
        <time>2013-01-12T18:50:46Z</time>
      </trkpt>
      <trkpt lat="59.482353" lon="17.8843975">
        <ele>12</ele>
        <time>2013-01-12T18:50:48Z</time>
      </trkpt>
      <trkpt lat="59.4822914" lon="17.8845028">
        <ele>11.6</ele>
        <time>2013-01-12T18:50:49Z</time>
      </trkpt>
      <trkpt lat="59.4821841" lon="17.8847229">
        <ele>11.6</ele>
        <time>2013-01-12T18:50:51Z</time>
      </trkpt>
      <trkpt lat="59.4821427" lon="17.8848463">
        <ele>11.6</ele>
        <time>2013-01-12T18:50:52Z</time>
      </trkpt>
      <trkpt lat="59.4820635" lon="17.885246">
        <ele>11.6</ele>
        <time>2013-01-12T18:50:55Z</time>
      </trkpt>
      <trkpt lat="59.4820479" lon="17.8853778">
        <ele>11.8</ele>
        <time>2013-01-12T18:50:56Z</time>
      </trkpt>
      <trkpt lat="59.4820258" lon="17.8856057">
        <ele>11.6</ele>
        <time>2013-01-12T18:50:58Z</time>
      </trkpt>
      <trkpt lat="59.4820008" lon="17.8860418">
        <ele>10.2</ele>
        <time>2013-01-12T18:51:03Z</time>
      </trkpt>
      <trkpt lat="59.4818723" lon="17.8863206">
        <ele>8.4</ele>
        <time>2013-01-12T18:51:07Z</time>
      </trkpt>
      <trkpt lat="59.4817925" lon="17.8864515">
        <ele>7</ele>
        <time>2013-01-12T18:51:09Z</time>
      </trkpt>
      <trkpt lat="59.4817071" lon="17.8865506">
        <ele>5.4</ele>
        <time>2013-01-12T18:51:11Z</time>
      </trkpt>
      <trkpt lat="59.4816231" lon="17.8866317">
        <ele>4</ele>
        <time>2013-01-12T18:51:13Z</time>
      </trkpt>
      <trkpt lat="59.4815435" lon="17.8867116">
        <ele>3.2</ele>
        <time>2013-01-12T18:51:15Z</time>
      </trkpt>
      <trkpt lat="59.4815046" lon="17.8867425">
        <ele>3</ele>
        <time>2013-01-12T18:51:16Z</time>
      </trkpt>
      <trkpt lat="59.4813429" lon="17.886835">
        <ele>2.4</ele>
        <time>2013-01-12T18:51:20Z</time>
      </trkpt>
      <trkpt lat="59.4813072" lon="17.8868617">
        <ele>2.8</ele>
        <time>2013-01-12T18:51:21Z</time>
      </trkpt>
      <trkpt lat="59.4811668" lon="17.8869458">
        <ele>2.8</ele>
        <time>2013-01-12T18:51:25Z</time>
      </trkpt>
      <trkpt lat="59.4809658" lon="17.8870375">
        <ele>3.4</ele>
        <time>2013-01-12T18:51:30Z</time>
      </trkpt>
      <trkpt lat="59.4807788" lon="17.8868923">
        <ele>6.2</ele>
        <time>2013-01-12T18:51:36Z</time>
      </trkpt>
      <trkpt lat="59.4807125" lon="17.8865313">
        <ele>6.4</ele>
        <time>2013-01-12T18:51:42Z</time>
      </trkpt>
      <trkpt lat="59.4806892" lon="17.8861365">
        <ele>6.8</ele>
        <time>2013-01-12T18:51:48Z</time>
      </trkpt>
      <trkpt lat="59.4806804" lon="17.8857808">
        <ele>8</ele>
        <time>2013-01-12T18:51:53Z</time>
      </trkpt>
      <trkpt lat="59.4806906" lon="17.8854101">
        <ele>7.4</ele>
        <time>2013-01-12T18:51:58Z</time>
      </trkpt>
      <trkpt lat="59.4807137" lon="17.8850151">
        <ele>7</ele>
        <time>2013-01-12T18:52:03Z</time>
      </trkpt>
      <trkpt lat="59.4806674" lon="17.8846545">
        <ele>7</ele>
        <time>2013-01-12T18:52:08Z</time>
      </trkpt>
      <trkpt lat="59.4805602" lon="17.8843447">
        <ele>8.8</ele>
        <time>2013-01-12T18:52:14Z</time>
      </trkpt>
      <trkpt lat="59.4804375" lon="17.8840726">
        <ele>9</ele>
        <time>2013-01-12T18:52:20Z</time>
      </trkpt>
      <trkpt lat="59.4802991" lon="17.8838153">
        <ele>10.2</ele>
        <time>2013-01-12T18:52:26Z</time>
      </trkpt>
      <trkpt lat="59.4801456" lon="17.8835605">
        <ele>10.4</ele>
        <time>2013-01-12T18:52:33Z</time>
      </trkpt>
      <trkpt lat="59.4799486" lon="17.8834972">
        <ele>11.8</ele>
        <time>2013-01-12T18:52:39Z</time>
      </trkpt>
      <trkpt lat="59.4797652" lon="17.8834691">
        <ele>12.8</ele>
        <time>2013-01-12T18:52:44Z</time>
      </trkpt>
      <trkpt lat="59.4795718" lon="17.8834254">
        <ele>14.2</ele>
        <time>2013-01-12T18:52:49Z</time>
      </trkpt>
      <trkpt lat="59.4793815" lon="17.8834013">
        <ele>15.2</ele>
        <time>2013-01-12T18:52:54Z</time>
      </trkpt>
      <trkpt lat="59.4791909" lon="17.8833765">
        <ele>15.4</ele>
        <time>2013-01-12T18:52:59Z</time>
      </trkpt>
      <trkpt lat="59.4789995" lon="17.8833196">
        <ele>14</ele>
        <time>2013-01-12T18:53:05Z</time>
      </trkpt>
      <trkpt lat="59.478814" lon="17.8832693">
        <ele>12</ele>
        <time>2013-01-12T18:53:11Z</time>
      </trkpt>
      <trkpt lat="59.4786363" lon="17.8831969">
        <ele>10.8</ele>
        <time>2013-01-12T18:53:17Z</time>
      </trkpt>
      <trkpt lat="59.478445" lon="17.883098">
        <ele>6</ele>
        <time>2013-01-12T18:53:24Z</time>
      </trkpt>
      <trkpt lat="59.4782742" lon="17.8830084">
        <ele>4.4</ele>
        <time>2013-01-12T18:53:30Z</time>
      </trkpt>
      <trkpt lat="59.4782567" lon="17.8829669">
        <ele>4.2</ele>
        <time>2013-01-12T18:53:31Z</time>
      </trkpt>
      <trkpt lat="59.4781577" lon="17.8826272">
        <ele>4.4</ele>
        <time>2013-01-12T18:53:38Z</time>
      </trkpt>
      <trkpt lat="59.4781098" lon="17.882225">
        <ele>5.6</ele>
        <time>2013-01-12T18:53:45Z</time>
      </trkpt>
      <trkpt lat="59.4780996" lon="17.8818445">
        <ele>7.4</ele>
        <time>2013-01-12T18:53:52Z</time>
      </trkpt>
      <trkpt lat="59.4779758" lon="17.8815407">
        <ele>11.2</ele>
        <time>2013-01-12T18:54:00Z</time>
      </trkpt>
      <trkpt lat="59.4777966" lon="17.8815852">
        <ele>12.4</ele>
        <time>2013-01-12T18:54:06Z</time>
      </trkpt>
      <trkpt lat="59.4777341" lon="17.8819853">
        <ele>13.2</ele>
        <time>2013-01-12T18:54:11Z</time>
      </trkpt>
      <trkpt lat="59.4778008" lon="17.8822242">
        <ele>14</ele>
        <time>2013-01-12T18:54:14Z</time>
      </trkpt>
      <trkpt lat="59.4778303" lon="17.8822907">
        <ele>14.2</ele>
        <time>2013-01-12T18:54:15Z</time>
      </trkpt>
      <trkpt lat="59.477918" lon="17.8824587">
        <ele>14.4</ele>
        <time>2013-01-12T18:54:18Z</time>
      </trkpt>
      <trkpt lat="59.4779874" lon="17.8825725">
        <ele>13.8</ele>
        <time>2013-01-12T18:54:20Z</time>
      </trkpt>
      <trkpt lat="59.4780559" lon="17.8826971">
        <ele>14.2</ele>
        <time>2013-01-12T18:54:22Z</time>
      </trkpt>
      <trkpt lat="59.4781221" lon="17.88283">
        <ele>14.4</ele>
        <time>2013-01-12T18:54:24Z</time>
      </trkpt>
      <trkpt lat="59.4781505" lon="17.8828931">
        <ele>14.2</ele>
        <time>2013-01-12T18:54:25Z</time>
      </trkpt>
      <trkpt lat="59.478228" lon="17.8831317">
        <ele>14</ele>
        <time>2013-01-12T18:54:28Z</time>
      </trkpt>
      <trkpt lat="59.4782401" lon="17.8834952">
        <ele>14.2</ele>
        <time>2013-01-12T18:54:32Z</time>
      </trkpt>
      <trkpt lat="59.4782363" lon="17.8835801">
        <ele>14.6</ele>
        <time>2013-01-12T18:54:33Z</time>
      </trkpt>
      <trkpt lat="59.4782307" lon="17.8836681">
        <ele>14.4</ele>
        <time>2013-01-12T18:54:34Z</time>
      </trkpt>
      <trkpt lat="59.4782307" lon="17.8838511">
        <ele>14.2</ele>
        <time>2013-01-12T18:54:36Z</time>
      </trkpt>
      <trkpt lat="59.4782338" lon="17.8841449">
        <ele>12.2</ele>
        <time>2013-01-12T18:54:39Z</time>
      </trkpt>
      <trkpt lat="59.4782349" lon="17.8842557">
        <ele>11.4</ele>
        <time>2013-01-12T18:54:40Z</time>
      </trkpt>
      <trkpt lat="59.4782145" lon="17.8846989">
        <ele>11</ele>
        <time>2013-01-12T18:54:44Z</time>
      </trkpt>
      <trkpt lat="59.47811" lon="17.8850286">
        <ele>10.4</ele>
        <time>2013-01-12T18:54:48Z</time>
      </trkpt>
      <trkpt lat="59.4779044" lon="17.8849874">
        <ele>8.8</ele>
        <time>2013-01-12T18:54:53Z</time>
      </trkpt>
      <trkpt lat="59.4776981" lon="17.8849586">
        <ele>9.6</ele>
        <time>2013-01-12T18:54:59Z</time>
      </trkpt>
      <trkpt lat="59.4776681" lon="17.8849746">
        <ele>9.4</ele>
        <time>2013-01-12T18:55:00Z</time>
      </trkpt>
      <trkpt lat="59.4775148" lon="17.8850853">
        <ele>8.2</ele>
        <time>2013-01-12T18:55:04Z</time>
      </trkpt>
      <trkpt lat="59.47735" lon="17.8852898">
        <ele>8</ele>
        <time>2013-01-12T18:55:09Z</time>
      </trkpt>
      <trkpt lat="59.4771806" lon="17.8854036">
        <ele>9.2</ele>
        <time>2013-01-12T18:55:14Z</time>
      </trkpt>
      <trkpt lat="59.4769777" lon="17.8854212">
        <ele>10</ele>
        <time>2013-01-12T18:55:20Z</time>
      </trkpt>
      <trkpt lat="59.4767724" lon="17.8855275">
        <ele>10.2</ele>
        <time>2013-01-12T18:55:26Z</time>
      </trkpt>
      <trkpt lat="59.4766224" lon="17.8857505">
        <ele>9.8</ele>
        <time>2013-01-12T18:55:31Z</time>
      </trkpt>
      <trkpt lat="59.4764888" lon="17.8860459">
        <ele>11</ele>
        <time>2013-01-12T18:55:36Z</time>
      </trkpt>
      <trkpt lat="59.4763706" lon="17.8863278">
        <ele>11.4</ele>
        <time>2013-01-12T18:55:41Z</time>
      </trkpt>
      <trkpt lat="59.4762373" lon="17.8866235">
        <ele>12.6</ele>
        <time>2013-01-12T18:55:46Z</time>
      </trkpt>
      <trkpt lat="59.4761546" lon="17.8869536">
        <ele>12.2</ele>
        <time>2013-01-12T18:55:51Z</time>
      </trkpt>
      <trkpt lat="59.4761187" lon="17.8873307">
        <ele>11.2</ele>
        <time>2013-01-12T18:55:56Z</time>
      </trkpt>
      <trkpt lat="59.476109" lon="17.8875947">
        <ele>10.2</ele>
        <time>2013-01-12T18:55:59Z</time>
      </trkpt>
      <trkpt lat="59.4761151" lon="17.8876827">
        <ele>10</ele>
        <time>2013-01-12T18:56:00Z</time>
      </trkpt>
      <trkpt lat="59.4761253" lon="17.8877728">
        <ele>9.6</ele>
        <time>2013-01-12T18:56:01Z</time>
      </trkpt>
      <trkpt lat="59.4761969" lon="17.8880304">
        <ele>8</ele>
        <time>2013-01-12T18:56:05Z</time>
      </trkpt>
      <trkpt lat="59.4763072" lon="17.8883568">
        <ele>6.2</ele>
        <time>2013-01-12T18:56:11Z</time>
      </trkpt>
      <trkpt lat="59.4764563" lon="17.8886059">
        <ele>4</ele>
        <time>2013-01-12T18:56:16Z</time>
      </trkpt>
      <trkpt lat="59.476649" lon="17.8886851">
        <ele>2.4</ele>
        <time>2013-01-12T18:56:21Z</time>
      </trkpt>
      <trkpt lat="59.4768356" lon="17.8886843">
        <ele>2.4</ele>
        <time>2013-01-12T18:56:26Z</time>
      </trkpt>
      <trkpt lat="59.4770015" lon="17.8884935">
        <ele>2.4</ele>
        <time>2013-01-12T18:56:31Z</time>
      </trkpt>
      <trkpt lat="59.4771755" lon="17.8883224">
        <ele>3.2</ele>
        <time>2013-01-12T18:56:37Z</time>
      </trkpt>
      <trkpt lat="59.4773587" lon="17.8881799">
        <ele>5.8</ele>
        <time>2013-01-12T18:56:43Z</time>
      </trkpt>
      <trkpt lat="59.4775371" lon="17.8880397">
        <ele>8.6</ele>
        <time>2013-01-12T18:56:49Z</time>
      </trkpt>
      <trkpt lat="59.4777227" lon="17.887892">
        <ele>10.6</ele>
        <time>2013-01-12T18:56:55Z</time>
      </trkpt>
      <trkpt lat="59.4778981" lon="17.8877216">
        <ele>11</ele>
        <time>2013-01-12T18:57:01Z</time>
      </trkpt>
      <trkpt lat="59.4780531" lon="17.8875201">
        <ele>9.2</ele>
        <time>2013-01-12T18:57:06Z</time>
      </trkpt>
      <trkpt lat="59.4782281" lon="17.8874149">
        <ele>8</ele>
        <time>2013-01-12T18:57:12Z</time>
      </trkpt>
      <trkpt lat="59.4784157" lon="17.8874079">
        <ele>9.2</ele>
        <time>2013-01-12T18:57:18Z</time>
      </trkpt>
      <trkpt lat="59.4785782" lon="17.8875808">
        <ele>8</ele>
        <time>2013-01-12T18:57:22Z</time>
      </trkpt>
      <trkpt lat="59.4786177" lon="17.8878997">
        <ele>8.2</ele>
        <time>2013-01-12T18:57:27Z</time>
      </trkpt>
      <trkpt lat="59.4786119" lon="17.8879575">
        <ele>8.2</ele>
        <time>2013-01-12T18:57:28Z</time>
      </trkpt>
      <trkpt lat="59.4785805" lon="17.8883433">
        <ele>9.4</ele>
        <time>2013-01-12T18:57:34Z</time>
      </trkpt>
      <trkpt lat="59.4785258" lon="17.8887099">
        <ele>10.2</ele>
        <time>2013-01-12T18:57:39Z</time>
      </trkpt>
      <trkpt lat="59.4783934" lon="17.889021">
        <ele>11</ele>
        <time>2013-01-12T18:57:44Z</time>
      </trkpt>
      <trkpt lat="59.4783596" lon="17.8890803">
        <ele>11</ele>
        <time>2013-01-12T18:57:45Z</time>
      </trkpt>
      <trkpt lat="59.4782292" lon="17.8892387">
        <ele>9.6</ele>
        <time>2013-01-12T18:57:48Z</time>
      </trkpt>
      <trkpt lat="59.4781292" lon="17.8893445">
        <ele>8.4</ele>
        <time>2013-01-12T18:57:50Z</time>
      </trkpt>
      <trkpt lat="59.478021" lon="17.8894527">
        <ele>7.8</ele>
        <time>2013-01-12T18:57:52Z</time>
      </trkpt>
      <trkpt lat="59.4779101" lon="17.8895348">
        <ele>7.6</ele>
        <time>2013-01-12T18:57:54Z</time>
      </trkpt>
      <trkpt lat="59.477861" lon="17.8895736">
        <ele>7.6</ele>
        <time>2013-01-12T18:57:55Z</time>
      </trkpt>
      <trkpt lat="59.4778132" lon="17.889613">
        <ele>7.6</ele>
        <time>2013-01-12T18:57:56Z</time>
      </trkpt>
      <trkpt lat="59.4776164" lon="17.8897195">
        <ele>7.4</ele>
        <time>2013-01-12T18:58:00Z</time>
      </trkpt>
      <trkpt lat="59.4774408" lon="17.8898128">
        <ele>6.8</ele>
        <time>2013-01-12T18:58:04Z</time>
      </trkpt>
      <trkpt lat="59.4773683" lon="17.8898543">
        <ele>7.6</ele>
        <time>2013-01-12T18:58:06Z</time>
      </trkpt>
      <trkpt lat="59.4772528" lon="17.8899016">
        <ele>8</ele>
        <time>2013-01-12T18:58:09Z</time>
      </trkpt>
      <trkpt lat="59.4772116" lon="17.8899231">
        <ele>7.8</ele>
        <time>2013-01-12T18:58:10Z</time>
      </trkpt>
      <trkpt lat="59.4771655" lon="17.8899341">
        <ele>7.8</ele>
        <time>2013-01-12T18:58:11Z</time>
      </trkpt>
      <trkpt lat="59.4770678" lon="17.889917">
        <ele>7.2</ele>
        <time>2013-01-12T18:58:13Z</time>
      </trkpt>
      <trkpt lat="59.4770237" lon="17.889899">
        <ele>7.4</ele>
        <time>2013-01-12T18:58:14Z</time>
      </trkpt>
      <trkpt lat="59.4768871" lon="17.8898186">
        <ele>7.4</ele>
        <time>2013-01-12T18:58:17Z</time>
      </trkpt>
      <trkpt lat="59.4766731" lon="17.8897352">
        <ele>6.2</ele>
        <time>2013-01-12T18:58:22Z</time>
      </trkpt>
      <trkpt lat="59.4764839" lon="17.8898044">
        <ele>4.8</ele>
        <time>2013-01-12T18:58:27Z</time>
      </trkpt>
      <trkpt lat="59.4764482" lon="17.8898293">
        <ele>4.6</ele>
        <time>2013-01-12T18:58:28Z</time>
      </trkpt>
      <trkpt lat="59.4762856" lon="17.889817">
        <ele>4.6</ele>
        <time>2013-01-12T18:58:33Z</time>
      </trkpt>
      <trkpt lat="59.4761311" lon="17.8896233">
        <ele>6.6</ele>
        <time>2013-01-12T18:58:39Z</time>
      </trkpt>
      <trkpt lat="59.4759769" lon="17.8893798">
        <ele>7.8</ele>
        <time>2013-01-12T18:58:45Z</time>
      </trkpt>
      <trkpt lat="59.4757691" lon="17.8893748">
        <ele>7.8</ele>
        <time>2013-01-12T18:58:51Z</time>
      </trkpt>
      <trkpt lat="59.4756454" lon="17.8895782">
        <ele>6.8</ele>
        <time>2013-01-12T18:58:55Z</time>
      </trkpt>
      <trkpt lat="59.4756402" lon="17.889635">
        <ele>6.4</ele>
        <time>2013-01-12T18:58:56Z</time>
      </trkpt>
      <trkpt lat="59.4757456" lon="17.8899326">
        <ele>6.4</ele>
        <time>2013-01-12T18:59:02Z</time>
      </trkpt>
      <trkpt lat="59.4759016" lon="17.8902285">
        <ele>4.6</ele>
        <time>2013-01-12T18:59:07Z</time>
      </trkpt>
      <trkpt lat="59.4759789" lon="17.8905552">
        <ele>2.8</ele>
        <time>2013-01-12T18:59:11Z</time>
      </trkpt>
      <trkpt lat="59.4760374" lon="17.8909083">
        <ele>1.4</ele>
        <time>2013-01-12T18:59:15Z</time>
      </trkpt>
      <trkpt lat="59.4760471" lon="17.8909913">
        <ele>1.2</ele>
        <time>2013-01-12T18:59:16Z</time>
      </trkpt>
      <trkpt lat="59.4760592" lon="17.8910666">
        <ele>0.8</ele>
        <time>2013-01-12T18:59:17Z</time>
      </trkpt>
      <trkpt lat="59.4761034" lon="17.8913131">
        <ele>0.4</ele>
        <time>2013-01-12T18:59:20Z</time>
      </trkpt>
      <trkpt lat="59.4762597" lon="17.8914338">
        <ele>0.4</ele>
        <time>2013-01-12T18:59:25Z</time>
      </trkpt>
      <trkpt lat="59.4763405" lon="17.8911438">
        <ele>0</ele>
        <time>2013-01-12T18:59:30Z</time>
      </trkpt>
      <trkpt lat="59.4762524" lon="17.8908505">
        <ele>0</ele>
        <time>2013-01-12T18:59:36Z</time>
      </trkpt>
      <trkpt lat="59.4762431" lon="17.8907936">
        <ele>0</ele>
        <time>2013-01-12T18:59:37Z</time>
      </trkpt>
      <trkpt lat="59.4762514" lon="17.8904246">
        <ele>0</ele>
        <time>2013-01-12T18:59:42Z</time>
      </trkpt>
      <trkpt lat="59.476397" lon="17.8901868">
        <ele>0</ele>
        <time>2013-01-12T18:59:48Z</time>
      </trkpt>
      <trkpt lat="59.4765726" lon="17.8903496">
        <ele>0.6</ele>
        <time>2013-01-12T18:59:54Z</time>
      </trkpt>
      <trkpt lat="59.4767609" lon="17.8905376">
        <ele>3.2</ele>
        <time>2013-01-12T19:00:00Z</time>
      </trkpt>
      <trkpt lat="59.4769315" lon="17.890694">
        <ele>6.2</ele>
        <time>2013-01-12T19:00:06Z</time>
      </trkpt>
      <trkpt lat="59.4771049" lon="17.8908199">
        <ele>7.2</ele>
        <time>2013-01-12T19:00:11Z</time>
      </trkpt>
      <trkpt lat="59.4772927" lon="17.8909295">
        <ele>8.2</ele>
        <time>2013-01-12T19:00:16Z</time>
      </trkpt>
      <trkpt lat="59.4775036" lon="17.8909884">
        <ele>7.6</ele>
        <time>2013-01-12T19:00:21Z</time>
      </trkpt>
      <trkpt lat="59.47767" lon="17.8910183">
        <ele>7.4</ele>
        <time>2013-01-12T19:00:25Z</time>
      </trkpt>
      <trkpt lat="59.4777076" lon="17.8910177">
        <ele>7.6</ele>
        <time>2013-01-12T19:00:26Z</time>
      </trkpt>
      <trkpt lat="59.4779156" lon="17.8909437">
        <ele>8.8</ele>
        <time>2013-01-12T19:00:33Z</time>
      </trkpt>
      <trkpt lat="59.4780846" lon="17.8907489">
        <ele>7.4</ele>
        <time>2013-01-12T19:00:38Z</time>
      </trkpt>
      <trkpt lat="59.4782414" lon="17.8905426">
        <ele>5.2</ele>
        <time>2013-01-12T19:00:43Z</time>
      </trkpt>
      <trkpt lat="59.4784136" lon="17.8903749">
        <ele>5</ele>
        <time>2013-01-12T19:00:48Z</time>
      </trkpt>
      <trkpt lat="59.4785922" lon="17.8902164">
        <ele>4.8</ele>
        <time>2013-01-12T19:00:54Z</time>
      </trkpt>
      <trkpt lat="59.4787701" lon="17.890002">
        <ele>2.2</ele>
        <time>2013-01-12T19:01:01Z</time>
      </trkpt>
      <trkpt lat="59.4789527" lon="17.8899155">
        <ele>1.8</ele>
        <time>2013-01-12T19:01:07Z</time>
      </trkpt>
      <trkpt lat="59.4791502" lon="17.889761">
        <ele>3.2</ele>
        <time>2013-01-12T19:01:13Z</time>
      </trkpt>
      <trkpt lat="59.4793088" lon="17.8895394">
        <ele>2.2</ele>
        <time>2013-01-12T19:01:18Z</time>
      </trkpt>
      <trkpt lat="59.4794864" lon="17.8893855">
        <ele>2.4</ele>
        <time>2013-01-12T19:01:23Z</time>
      </trkpt>
      <trkpt lat="59.4796712" lon="17.8893197">
        <ele>0.4</ele>
        <time>2013-01-12T19:01:28Z</time>
      </trkpt>
      <trkpt lat="59.4798899" lon="17.8893796">
        <ele>0</ele>
        <time>2013-01-12T19:01:33Z</time>
      </trkpt>
      <trkpt lat="59.4800898" lon="17.8894459">
        <ele>0</ele>
        <time>2013-01-12T19:01:37Z</time>
      </trkpt>
      <trkpt lat="59.4801924" lon="17.889488">
        <ele>0</ele>
        <time>2013-01-12T19:01:39Z</time>
      </trkpt>
      <trkpt lat="59.4802898" lon="17.8894799">
        <ele>0</ele>
        <time>2013-01-12T19:01:41Z</time>
      </trkpt>
      <trkpt lat="59.4804336" lon="17.8894294">
        <ele>0</ele>
        <time>2013-01-12T19:01:44Z</time>
      </trkpt>
      <trkpt lat="59.4804826" lon="17.8894196">
        <ele>0</ele>
        <time>2013-01-12T19:01:45Z</time>
      </trkpt>
      <trkpt lat="59.4806748" lon="17.88941">
        <ele>0</ele>
        <time>2013-01-12T19:01:49Z</time>
      </trkpt>
      <trkpt lat="59.4807603" lon="17.8894036">
        <ele>0</ele>
        <time>2013-01-12T19:01:51Z</time>
      </trkpt>
      <trkpt lat="59.4808752" lon="17.8893715">
        <ele>0</ele>
        <time>2013-01-12T19:01:54Z</time>
      </trkpt>
      <trkpt lat="59.4809506" lon="17.8893235">
        <ele>0.4</ele>
        <time>2013-01-12T19:01:56Z</time>
      </trkpt>
      <trkpt lat="59.4810348" lon="17.8892416">
        <ele>0.6</ele>
        <time>2013-01-12T19:01:58Z</time>
      </trkpt>
      <trkpt lat="59.4810715" lon="17.8891939">
        <ele>0.2</ele>
        <time>2013-01-12T19:01:59Z</time>
      </trkpt>
      <trkpt lat="59.481229" lon="17.8890084">
        <ele>0.6</ele>
        <time>2013-01-12T19:02:04Z</time>
      </trkpt>
      <trkpt lat="59.4814137" lon="17.8888846">
        <ele>2.6</ele>
        <time>2013-01-12T19:02:11Z</time>
      </trkpt>
      <trkpt lat="59.4815941" lon="17.8889017">
        <ele>2.2</ele>
        <time>2013-01-12T19:02:15Z</time>
      </trkpt>
      <trkpt lat="59.4817594" lon="17.8889846">
        <ele>3.2</ele>
        <time>2013-01-12T19:02:19Z</time>
      </trkpt>
      <trkpt lat="59.4818044" lon="17.8889824">
        <ele>2.4</ele>
        <time>2013-01-12T19:02:20Z</time>
      </trkpt>
      <trkpt lat="59.4818967" lon="17.8889622">
        <ele>2.2</ele>
        <time>2013-01-12T19:02:22Z</time>
      </trkpt>
      <trkpt lat="59.4820232" lon="17.8888943">
        <ele>2.6</ele>
        <time>2013-01-12T19:02:25Z</time>
      </trkpt>
      <trkpt lat="59.4822002" lon="17.8886891">
        <ele>1.6</ele>
        <time>2013-01-12T19:02:30Z</time>
      </trkpt>
      <trkpt lat="59.482324" lon="17.8883872">
        <ele>0.2</ele>
        <time>2013-01-12T19:02:36Z</time>
      </trkpt>
      <trkpt lat="59.4824345" lon="17.8880808">
        <ele>1.4</ele>
        <time>2013-01-12T19:02:42Z</time>
      </trkpt>
      <trkpt lat="59.4825577" lon="17.8877293">
        <ele>0</ele>
        <time>2013-01-12T19:02:48Z</time>
      </trkpt>
      <trkpt lat="59.4827001" lon="17.8874257">
        <ele>0</ele>
        <time>2013-01-12T19:02:53Z</time>
      </trkpt>
      <trkpt lat="59.4828275" lon="17.8871539">
        <ele>0</ele>
        <time>2013-01-12T19:02:58Z</time>
      </trkpt>
      <trkpt lat="59.4829886" lon="17.8868913">
        <ele>0</ele>
        <time>2013-01-12T19:03:04Z</time>
      </trkpt>
      <trkpt lat="59.483185" lon="17.8867609">
        <ele>0</ele>
        <time>2013-01-12T19:03:10Z</time>
      </trkpt>
      <trkpt lat="59.4834004" lon="17.886749">
        <ele>0</ele>
        <time>2013-01-12T19:03:16Z</time>
      </trkpt>
      <trkpt lat="59.4835853" lon="17.8865591">
        <ele>1</ele>
        <time>2013-01-12T19:03:21Z</time>
      </trkpt>
      <trkpt lat="59.4837696" lon="17.8863695">
        <ele>0</ele>
        <time>2013-01-12T19:03:26Z</time>
      </trkpt>
      <trkpt lat="59.4838444" lon="17.8863205">
        <ele>0</ele>
        <time>2013-01-12T19:03:28Z</time>
      </trkpt>
      <trkpt lat="59.4839459" lon="17.8862454">
        <ele>0.4</ele>
        <time>2013-01-12T19:03:31Z</time>
      </trkpt>
      <trkpt lat="59.4841208" lon="17.8860781">
        <ele>1</ele>
        <time>2013-01-12T19:03:37Z</time>
      </trkpt>
      <trkpt lat="59.484318" lon="17.8860124">
        <ele>1.8</ele>
        <time>2013-01-12T19:03:43Z</time>
      </trkpt>
      <trkpt lat="59.4844868" lon="17.885832">
        <ele>3.2</ele>
        <time>2013-01-12T19:03:50Z</time>
      </trkpt>
      <trkpt lat="59.4846274" lon="17.8855864">
        <ele>5.8</ele>
        <time>2013-01-12T19:03:58Z</time>
      </trkpt>
      <trkpt lat="59.4847943" lon="17.8853785">
        <ele>5.6</ele>
        <time>2013-01-12T19:04:05Z</time>
      </trkpt>
      <trkpt lat="59.4849772" lon="17.8852736">
        <ele>7.6</ele>
        <time>2013-01-12T19:04:10Z</time>
      </trkpt>
      <trkpt lat="59.4851436" lon="17.8853912">
        <ele>8</ele>
        <time>2013-01-12T19:04:14Z</time>
      </trkpt>
      <trkpt lat="59.4851804" lon="17.8854564">
        <ele>8</ele>
        <time>2013-01-12T19:04:15Z</time>
      </trkpt>
      <trkpt lat="59.4852648" lon="17.8857052">
        <ele>8.4</ele>
        <time>2013-01-12T19:04:18Z</time>
      </trkpt>
      <trkpt lat="59.4853269" lon="17.8859784">
        <ele>8.2</ele>
        <time>2013-01-12T19:04:21Z</time>
      </trkpt>
      <trkpt lat="59.48535" lon="17.8860668">
        <ele>7.4</ele>
        <time>2013-01-12T19:04:22Z</time>
      </trkpt>
      <trkpt lat="59.4853809" lon="17.8861567">
        <ele>7.2</ele>
        <time>2013-01-12T19:04:23Z</time>
      </trkpt>
      <trkpt lat="59.4855027" lon="17.8863707">
        <ele>6.8</ele>
        <time>2013-01-12T19:04:26Z</time>
      </trkpt>
      <trkpt lat="59.4855457" lon="17.8864251">
        <ele>7</ele>
        <time>2013-01-12T19:04:27Z</time>
      </trkpt>
      <trkpt lat="59.4856855" lon="17.8865142">
        <ele>7.4</ele>
        <time>2013-01-12T19:04:30Z</time>
      </trkpt>
      <trkpt lat="59.4858582" lon="17.8865173">
        <ele>6.4</ele>
        <time>2013-01-12T19:04:34Z</time>
      </trkpt>
      <trkpt lat="59.4858981" lon="17.8865071">
        <ele>5.8</ele>
        <time>2013-01-12T19:04:35Z</time>
      </trkpt>
      <trkpt lat="59.4860142" lon="17.88647">
        <ele>5.2</ele>
        <time>2013-01-12T19:04:38Z</time>
      </trkpt>
      <trkpt lat="59.4860791" lon="17.8864329">
        <ele>3.8</ele>
        <time>2013-01-12T19:04:40Z</time>
      </trkpt>
      <trkpt lat="59.4861146" lon="17.8864158">
        <ele>3.4</ele>
        <time>2013-01-12T19:04:41Z</time>
      </trkpt>
      <trkpt lat="59.4862729" lon="17.8863692">
        <ele>3</ele>
        <time>2013-01-12T19:04:45Z</time>
      </trkpt>
      <trkpt lat="59.4864769" lon="17.8863009">
        <ele>2.2</ele>
        <time>2013-01-12T19:04:51Z</time>
      </trkpt>
      <trkpt lat="59.4866646" lon="17.8862447">
        <ele>1.4</ele>
        <time>2013-01-12T19:04:56Z</time>
      </trkpt>
      <trkpt lat="59.4868581" lon="17.8861785">
        <ele>2.2</ele>
        <time>2013-01-12T19:05:01Z</time>
      </trkpt>
      <trkpt lat="59.4869909" lon="17.8860435">
        <ele>2.6</ele>
        <time>2013-01-12T19:05:06Z</time>
      </trkpt>
      <trkpt lat="59.4870069" lon="17.8859734">
        <ele>2.6</ele>
        <time>2013-01-12T19:05:08Z</time>
      </trkpt>
      <trkpt lat="59.4869846" lon="17.8857724">
        <ele>3</ele>
        <time>2013-01-12T19:05:14Z</time>
      </trkpt>
      <trkpt lat="59.4868997" lon="17.8857004">
        <ele>4.2</ele>
        <time>2013-01-12T19:05:19Z</time>
      </trkpt>
      <trkpt lat="59.4867019" lon="17.8856894">
        <ele>5.4</ele>
        <time>2013-01-12T19:05:25Z</time>
      </trkpt>
      <trkpt lat="59.4865091" lon="17.885627">
        <ele>6.6</ele>
        <time>2013-01-12T19:05:31Z</time>
      </trkpt>
      <trkpt lat="59.4863474" lon="17.8854404">
        <ele>6.8</ele>
        <time>2013-01-12T19:05:38Z</time>
      </trkpt>
      <trkpt lat="59.4862293" lon="17.8851161">
        <ele>5.6</ele>
        <time>2013-01-12T19:05:45Z</time>
      </trkpt>
      <trkpt lat="59.4861463" lon="17.8848048">
        <ele>4.4</ele>
        <time>2013-01-12T19:05:51Z</time>
      </trkpt>
      <trkpt lat="59.4860775" lon="17.8844334">
        <ele>4.8</ele>
        <time>2013-01-12T19:05:57Z</time>
      </trkpt>
      <trkpt lat="59.4860084" lon="17.8840982">
        <ele>6.4</ele>
        <time>2013-01-12T19:06:03Z</time>
      </trkpt>
      <trkpt lat="59.4859435" lon="17.8837561">
        <ele>7</ele>
        <time>2013-01-12T19:06:08Z</time>
      </trkpt>
      <trkpt lat="59.4858382" lon="17.8833952">
        <ele>7.6</ele>
        <time>2013-01-12T19:06:14Z</time>
      </trkpt>
      <trkpt lat="59.4857495" lon="17.8830123">
        <ele>9.2</ele>
        <time>2013-01-12T19:06:20Z</time>
      </trkpt>
      <trkpt lat="59.4857246" lon="17.8826504">
        <ele>10.6</ele>
        <time>2013-01-12T19:06:26Z</time>
      </trkpt>
      <trkpt lat="59.4857779" lon="17.882286">
        <ele>10</ele>
        <time>2013-01-12T19:06:32Z</time>
      </trkpt>
      <trkpt lat="59.4859439" lon="17.8821226">
        <ele>7.8</ele>
        <time>2013-01-12T19:06:37Z</time>
      </trkpt>
      <trkpt lat="59.4861274" lon="17.8820433">
        <ele>7.6</ele>
        <time>2013-01-12T19:06:41Z</time>
      </trkpt>
      <trkpt lat="59.486175" lon="17.882022">
        <ele>7.2</ele>
        <time>2013-01-12T19:06:42Z</time>
      </trkpt>
      <trkpt lat="59.4863153" lon="17.8820109">
        <ele>6</ele>
        <time>2013-01-12T19:06:45Z</time>
      </trkpt>
      <trkpt lat="59.4864711" lon="17.8821423">
        <ele>4.8</ele>
        <time>2013-01-12T19:06:49Z</time>
      </trkpt>
      <trkpt lat="59.4865106" lon="17.8821919">
        <ele>4.4</ele>
        <time>2013-01-12T19:06:50Z</time>
      </trkpt>
      <trkpt lat="59.4866299" lon="17.882339">
        <ele>4</ele>
        <time>2013-01-12T19:06:53Z</time>
      </trkpt>
      <trkpt lat="59.4866929" lon="17.8824223">
        <ele>5</ele>
        <time>2013-01-12T19:06:55Z</time>
      </trkpt>
      <trkpt lat="59.4868088" lon="17.8825648">
        <ele>5.2</ele>
        <time>2013-01-12T19:06:59Z</time>
      </trkpt>
      <trkpt lat="59.486878" lon="17.8826524">
        <ele>5.8</ele>
        <time>2013-01-12T19:07:01Z</time>
      </trkpt>
      <trkpt lat="59.4870603" lon="17.8828305">
        <ele>6.4</ele>
        <time>2013-01-12T19:07:05Z</time>
      </trkpt>
      <trkpt lat="59.4872302" lon="17.8829652">
        <ele>6.4</ele>
        <time>2013-01-12T19:07:10Z</time>
      </trkpt>
      <trkpt lat="59.4872543" lon="17.8829907">
        <ele>7.2</ele>
        <time>2013-01-12T19:07:11Z</time>
      </trkpt>
      <trkpt lat="59.4873076" lon="17.883146">
        <ele>8.6</ele>
        <time>2013-01-12T19:07:14Z</time>
      </trkpt>
      <trkpt lat="59.4873556" lon="17.8833176">
        <ele>7.8</ele>
        <time>2013-01-12T19:07:16Z</time>
      </trkpt>
      <trkpt lat="59.4874579" lon="17.8835745">
        <ele>7</ele>
        <time>2013-01-12T19:07:19Z</time>
      </trkpt>
      <trkpt lat="59.4875088" lon="17.8836119">
        <ele>7</ele>
        <time>2013-01-12T19:07:20Z</time>
      </trkpt>
      <trkpt lat="59.487698" lon="17.8834845">
        <ele>7.8</ele>
        <time>2013-01-12T19:07:24Z</time>
      </trkpt>
      <trkpt lat="59.4878111" lon="17.8834226">
        <ele>8</ele>
        <time>2013-01-12T19:07:27Z</time>
      </trkpt>
      <trkpt lat="59.4878781" lon="17.8833809">
        <ele>7.6</ele>
        <time>2013-01-12T19:07:29Z</time>
      </trkpt>
      <trkpt lat="59.4880342" lon="17.8832787">
        <ele>7</ele>
        <time>2013-01-12T19:07:33Z</time>
      </trkpt>
      <trkpt lat="59.488067" lon="17.8832538">
        <ele>6.8</ele>
        <time>2013-01-12T19:07:34Z</time>
      </trkpt>
      <trkpt lat="59.4882393" lon="17.8831288">
        <ele>5.2</ele>
        <time>2013-01-12T19:07:39Z</time>
      </trkpt>
      <trkpt lat="59.4884246" lon="17.8829732">
        <ele>5.2</ele>
        <time>2013-01-12T19:07:45Z</time>
      </trkpt>
      <trkpt lat="59.4885976" lon="17.8828006">
        <ele>4</ele>
        <time>2013-01-12T19:07:50Z</time>
      </trkpt>
      <trkpt lat="59.4887525" lon="17.8825337">
        <ele>5.2</ele>
        <time>2013-01-12T19:07:55Z</time>
      </trkpt>
      <trkpt lat="59.4888167" lon="17.8823383">
        <ele>5.6</ele>
        <time>2013-01-12T19:07:58Z</time>
      </trkpt>
      <trkpt lat="59.4888536" lon="17.8822252">
        <ele>5.8</ele>
        <time>2013-01-12T19:08:00Z</time>
      </trkpt>
      <trkpt lat="59.4890022" lon="17.8819398">
        <ele>6.6</ele>
        <time>2013-01-12T19:08:06Z</time>
      </trkpt>
      <trkpt lat="59.4891886" lon="17.8817268">
        <ele>6.2</ele>
        <time>2013-01-12T19:08:11Z</time>
      </trkpt>
      <trkpt lat="59.4893532" lon="17.8815673">
        <ele>6</ele>
        <time>2013-01-12T19:08:15Z</time>
      </trkpt>
      <trkpt lat="59.4894306" lon="17.8815033">
        <ele>5.6</ele>
        <time>2013-01-12T19:08:17Z</time>
      </trkpt>
      <trkpt lat="59.4895425" lon="17.8814305">
        <ele>4.8</ele>
        <time>2013-01-12T19:08:20Z</time>
      </trkpt>
      <trkpt lat="59.4897552" lon="17.8814185">
        <ele>2.6</ele>
        <time>2013-01-12T19:08:26Z</time>
      </trkpt>
      <trkpt lat="59.4899432" lon="17.8814377">
        <ele>1.4</ele>
        <time>2013-01-12T19:08:31Z</time>
      </trkpt>
      <trkpt lat="59.4901442" lon="17.8814325">
        <ele>0.2</ele>
        <time>2013-01-12T19:08:36Z</time>
      </trkpt>
      <trkpt lat="59.4903349" lon="17.8814345">
        <ele>0.8</ele>
        <time>2013-01-12T19:08:41Z</time>
      </trkpt>
      <trkpt lat="59.490519" lon="17.8814502">
        <ele>0.8</ele>
        <time>2013-01-12T19:08:46Z</time>
      </trkpt>
      <trkpt lat="59.4907061" lon="17.8814759">
        <ele>1.4</ele>
        <time>2013-01-12T19:08:51Z</time>
      </trkpt>
      <trkpt lat="59.4908877" lon="17.8814813">
        <ele>1.2</ele>
        <time>2013-01-12T19:08:56Z</time>
      </trkpt>
      <trkpt lat="59.4910816" lon="17.8814839">
        <ele>1.4</ele>
        <time>2013-01-12T19:09:02Z</time>
      </trkpt>
      <trkpt lat="59.491269" lon="17.8815492">
        <ele>2.6</ele>
        <time>2013-01-12T19:09:08Z</time>
      </trkpt>
      <trkpt lat="59.4914715" lon="17.8816279">
        <ele>4</ele>
        <time>2013-01-12T19:09:14Z</time>
      </trkpt>
      <trkpt lat="59.4916573" lon="17.8817062">
        <ele>4.4</ele>
        <time>2013-01-12T19:09:19Z</time>
      </trkpt>
      <trkpt lat="59.4918574" lon="17.8817858">
        <ele>4</ele>
        <time>2013-01-12T19:09:24Z</time>
      </trkpt>
      <trkpt lat="59.4920341" lon="17.8818614">
        <ele>4.6</ele>
        <time>2013-01-12T19:09:29Z</time>
      </trkpt>
      <trkpt lat="59.4922213" lon="17.8819504">
        <ele>6.4</ele>
        <time>2013-01-12T19:09:36Z</time>
      </trkpt>
      <trkpt lat="59.4924214" lon="17.8820619">
        <ele>5.6</ele>
        <time>2013-01-12T19:09:42Z</time>
      </trkpt>
      <trkpt lat="59.4926117" lon="17.8821568">
        <ele>4</ele>
        <time>2013-01-12T19:09:47Z</time>
      </trkpt>
      <trkpt lat="59.4927952" lon="17.8822148">
        <ele>3</ele>
        <time>2013-01-12T19:09:52Z</time>
      </trkpt>
      <trkpt lat="59.492947" lon="17.8819794">
        <ele>3.6</ele>
        <time>2013-01-12T19:09:58Z</time>
      </trkpt>
      <trkpt lat="59.4929443" lon="17.8816204">
        <ele>3.4</ele>
        <time>2013-01-12T19:10:05Z</time>
      </trkpt>
      <trkpt lat="59.4929261" lon="17.8812565">
        <ele>6</ele>
        <time>2013-01-12T19:10:12Z</time>
      </trkpt>
      <trkpt lat="59.4929522" lon="17.8808684">
        <ele>8.2</ele>
        <time>2013-01-12T19:10:19Z</time>
      </trkpt>
      <trkpt lat="59.4930596" lon="17.8805482">
        <ele>8</ele>
        <time>2013-01-12T19:10:24Z</time>
      </trkpt>
      <trkpt lat="59.4931872" lon="17.8802747">
        <ele>6.8</ele>
        <time>2013-01-12T19:10:29Z</time>
      </trkpt>
      <trkpt lat="59.4931671" lon="17.8798816">
        <ele>7</ele>
        <time>2013-01-12T19:10:35Z</time>
      </trkpt>
      <trkpt lat="59.4930691" lon="17.8795848">
        <ele>6</ele>
        <time>2013-01-12T19:10:39Z</time>
      </trkpt>
      <trkpt lat="59.4929205" lon="17.8793722">
        <ele>4.6</ele>
        <time>2013-01-12T19:10:44Z</time>
      </trkpt>
      <trkpt lat="59.4927246" lon="17.8792237">
        <ele>4.6</ele>
        <time>2013-01-12T19:10:50Z</time>
      </trkpt>
      <trkpt lat="59.4925123" lon="17.879157">
        <ele>4.4</ele>
        <time>2013-01-12T19:10:56Z</time>
      </trkpt>
      <trkpt lat="59.4922988" lon="17.8791937">
        <ele>4.8</ele>
        <time>2013-01-12T19:11:02Z</time>
      </trkpt>
      <trkpt lat="59.4921173" lon="17.8791797">
        <ele>4.4</ele>
        <time>2013-01-12T19:11:07Z</time>
      </trkpt>
      <trkpt lat="59.4919078" lon="17.8791413">
        <ele>5.8</ele>
        <time>2013-01-12T19:11:14Z</time>
      </trkpt>
      <trkpt lat="59.4917234" lon="17.8791759">
        <ele>8.4</ele>
        <time>2013-01-12T19:11:20Z</time>
      </trkpt>
      <trkpt lat="59.4915229" lon="17.8792073">
        <ele>9.2</ele>
        <time>2013-01-12T19:11:26Z</time>
      </trkpt>
      <trkpt lat="59.4913388" lon="17.879223">
        <ele>9.8</ele>
        <time>2013-01-12T19:11:32Z</time>
      </trkpt>
      <trkpt lat="59.4911338" lon="17.8792121">
        <ele>10</ele>
        <time>2013-01-12T19:11:38Z</time>
      </trkpt>
      <trkpt lat="59.4909209" lon="17.8791948">
        <ele>7.6</ele>
        <time>2013-01-12T19:11:43Z</time>
      </trkpt>
      <trkpt lat="59.4907135" lon="17.8791574">
        <ele>7.8</ele>
        <time>2013-01-12T19:11:48Z</time>
      </trkpt>
      <trkpt lat="59.4905102" lon="17.879149">
        <ele>7</ele>
        <time>2013-01-12T19:11:53Z</time>
      </trkpt>
      <trkpt lat="59.4904304" lon="17.8791448">
        <ele>6.8</ele>
        <time>2013-01-12T19:11:55Z</time>
      </trkpt>
      <trkpt lat="59.4903941" lon="17.8791435">
        <ele>6.8</ele>
        <time>2013-01-12T19:11:56Z</time>
      </trkpt>
      <trkpt lat="59.4903226" lon="17.879141">
        <ele>7</ele>
        <time>2013-01-12T19:11:58Z</time>
      </trkpt>
      <trkpt lat="59.4901377" lon="17.8791277">
        <ele>6.4</ele>
        <time>2013-01-12T19:12:03Z</time>
      </trkpt>
      <trkpt lat="59.4899274" lon="17.8791207">
        <ele>8.2</ele>
        <time>2013-01-12T19:12:09Z</time>
      </trkpt>
      <trkpt lat="59.4897217" lon="17.8791252">
        <ele>8.2</ele>
        <time>2013-01-12T19:12:15Z</time>
      </trkpt>
      <trkpt lat="59.4895265" lon="17.8790997">
        <ele>9.4</ele>
        <time>2013-01-12T19:12:22Z</time>
      </trkpt>
      <trkpt lat="59.4893398" lon="17.8790962">
        <ele>10.6</ele>
        <time>2013-01-12T19:12:29Z</time>
      </trkpt>
      <trkpt lat="59.4891586" lon="17.8790911">
        <ele>11.2</ele>
        <time>2013-01-12T19:12:35Z</time>
      </trkpt>
      <trkpt lat="59.4889751" lon="17.8791062">
        <ele>11.6</ele>
        <time>2013-01-12T19:12:41Z</time>
      </trkpt>
      <trkpt lat="59.4889219" lon="17.8790875">
        <ele>11.6</ele>
        <time>2013-01-12T19:12:43Z</time>
      </trkpt>
      <trkpt lat="59.4888774" lon="17.8789505">
        <ele>12.2</ele>
        <time>2013-01-12T19:12:49Z</time>
      </trkpt>
      <trkpt lat="59.488887" lon="17.878873">
        <ele>11.4</ele>
        <time>2013-01-12T19:12:51Z</time>
      </trkpt>
      <trkpt lat="59.4889029" lon="17.878831">
        <ele>11.2</ele>
        <time>2013-01-12T19:12:52Z</time>
      </trkpt>
      <trkpt lat="59.4890608" lon="17.8787817">
        <ele>9.8</ele>
        <time>2013-01-12T19:12:58Z</time>
      </trkpt>
      <trkpt lat="59.4892633" lon="17.8787351">
        <ele>7.4</ele>
        <time>2013-01-12T19:13:06Z</time>
      </trkpt>
      <trkpt lat="59.4894423" lon="17.8787064">
        <ele>7</ele>
        <time>2013-01-12T19:13:11Z</time>
      </trkpt>
      <trkpt lat="59.489611" lon="17.8785129">
        <ele>9</ele>
        <time>2013-01-12T19:13:17Z</time>
      </trkpt>
      <trkpt lat="59.4896243" lon="17.8781421">
        <ele>9.6</ele>
        <time>2013-01-12T19:13:23Z</time>
      </trkpt>
      <trkpt lat="59.4896036" lon="17.8780898">
        <ele>10.2</ele>
        <time>2013-01-12T19:13:24Z</time>
      </trkpt>
      <trkpt lat="59.4894483" lon="17.8779701">
        <ele>12.4</ele>
        <time>2013-01-12T19:13:30Z</time>
      </trkpt>
      <trkpt lat="59.4894146" lon="17.8779556">
        <ele>13</ele>
        <time>2013-01-12T19:13:31Z</time>
      </trkpt>
      <trkpt lat="59.4892435" lon="17.877979">
        <ele>15</ele>
        <time>2013-01-12T19:13:36Z</time>
      </trkpt>
      <trkpt lat="59.4890726" lon="17.8781172">
        <ele>14</ele>
        <time>2013-01-12T19:13:41Z</time>
      </trkpt>
      <trkpt lat="59.4888884" lon="17.8781109">
        <ele>13.6</ele>
        <time>2013-01-12T19:13:46Z</time>
      </trkpt>
      <trkpt lat="59.488866" lon="17.878067">
        <ele>13.2</ele>
        <time>2013-01-12T19:13:47Z</time>
      </trkpt>
      <trkpt lat="59.48888" lon="17.877721">
        <ele>11</ele>
        <time>2013-01-12T19:13:52Z</time>
      </trkpt>
      <trkpt lat="59.4889547" lon="17.8775393">
        <ele>11.2</ele>
        <time>2013-01-12T19:13:55Z</time>
      </trkpt>
      <trkpt lat="59.4890054" lon="17.8774402">
        <ele>11.4</ele>
        <time>2013-01-12T19:13:57Z</time>
      </trkpt>
      <trkpt lat="59.4891616" lon="17.8772274">
        <ele>11.8</ele>
        <time>2013-01-12T19:14:02Z</time>
      </trkpt>
      <trkpt lat="59.4893523" lon="17.8771931">
        <ele>12.4</ele>
        <time>2013-01-12T19:14:08Z</time>
      </trkpt>
      <trkpt lat="59.4895384" lon="17.8772002">
        <ele>12.2</ele>
        <time>2013-01-12T19:14:13Z</time>
      </trkpt>
      <trkpt lat="59.4897221" lon="17.8772088">
        <ele>11.6</ele>
        <time>2013-01-12T19:14:18Z</time>
      </trkpt>
      <trkpt lat="59.4899242" lon="17.8771786">
        <ele>10.6</ele>
        <time>2013-01-12T19:14:23Z</time>
      </trkpt>
      <trkpt lat="59.4901319" lon="17.8770413">
        <ele>10.4</ele>
        <time>2013-01-12T19:14:28Z</time>
      </trkpt>
      <trkpt lat="59.4902359" lon="17.8769186">
        <ele>9.4</ele>
        <time>2013-01-12T19:14:31Z</time>
      </trkpt>
      <trkpt lat="59.4902989" lon="17.876815">
        <ele>9</ele>
        <time>2013-01-12T19:14:33Z</time>
      </trkpt>
      <trkpt lat="59.4903686" lon="17.8767345">
        <ele>8.4</ele>
        <time>2013-01-12T19:14:35Z</time>
      </trkpt>
      <trkpt lat="59.4904847" lon="17.8767062">
        <ele>8.8</ele>
        <time>2013-01-12T19:14:38Z</time>
      </trkpt>
      <trkpt lat="59.4905902" lon="17.8767555">
        <ele>8.6</ele>
        <time>2013-01-12T19:14:41Z</time>
      </trkpt>
      <trkpt lat="59.4906659" lon="17.8767891">
        <ele>7.8</ele>
        <time>2013-01-12T19:14:43Z</time>
      </trkpt>
      <trkpt lat="59.4908483" lon="17.8768459">
        <ele>7.2</ele>
        <time>2013-01-12T19:14:47Z</time>
      </trkpt>
      <trkpt lat="59.4909313" lon="17.8768685">
        <ele>6.8</ele>
        <time>2013-01-12T19:14:49Z</time>
      </trkpt>
      <trkpt lat="59.4910456" lon="17.8769189">
        <ele>6</ele>
        <time>2013-01-12T19:14:52Z</time>
      </trkpt>
      <trkpt lat="59.491138" lon="17.876957">
        <ele>5.8</ele>
        <time>2013-01-12T19:14:54Z</time>
      </trkpt>
      <trkpt lat="59.4912256" lon="17.8769859">
        <ele>5.2</ele>
        <time>2013-01-12T19:14:56Z</time>
      </trkpt>
      <trkpt lat="59.4913162" lon="17.8770403">
        <ele>5</ele>
        <time>2013-01-12T19:14:58Z</time>
      </trkpt>
      <trkpt lat="59.4913612" lon="17.877064">
        <ele>5.4</ele>
        <time>2013-01-12T19:14:59Z</time>
      </trkpt>
      <trkpt lat="59.4914032" lon="17.8770802">
        <ele>5.4</ele>
        <time>2013-01-12T19:15:00Z</time>
      </trkpt>
      <trkpt lat="59.491495" lon="17.8771231">
        <ele>6.4</ele>
        <time>2013-01-12T19:15:02Z</time>
      </trkpt>
      <trkpt lat="59.4916257" lon="17.8771429">
        <ele>6</ele>
        <time>2013-01-12T19:15:05Z</time>
      </trkpt>
      <trkpt lat="59.4917249" lon="17.8771268">
        <ele>6.2</ele>
        <time>2013-01-12T19:15:07Z</time>
      </trkpt>
      <trkpt lat="59.491811" lon="17.8770894">
        <ele>6.6</ele>
        <time>2013-01-12T19:15:09Z</time>
      </trkpt>
      <trkpt lat="59.491929" lon="17.8770491">
        <ele>7.2</ele>
        <time>2013-01-12T19:15:12Z</time>
      </trkpt>
      <trkpt lat="59.4920081" lon="17.8770562">
        <ele>8.8</ele>
        <time>2013-01-12T19:15:14Z</time>
      </trkpt>
      <trkpt lat="59.4921208" lon="17.8770625">
        <ele>8.8</ele>
        <time>2013-01-12T19:15:17Z</time>
      </trkpt>
      <trkpt lat="59.4921595" lon="17.8770585">
        <ele>8.8</ele>
        <time>2013-01-12T19:15:18Z</time>
      </trkpt>
      <trkpt lat="59.4922004" lon="17.8770559">
        <ele>9</ele>
        <time>2013-01-12T19:15:19Z</time>
      </trkpt>
      <trkpt lat="59.4924273" lon="17.8770507">
        <ele>12.2</ele>
        <time>2013-01-12T19:15:24Z</time>
      </trkpt>
      <trkpt lat="59.4926071" lon="17.8770491">
        <ele>13.6</ele>
        <time>2013-01-12T19:15:28Z</time>
      </trkpt>
      <trkpt lat="59.4926494" lon="17.8770531">
        <ele>14</ele>
        <time>2013-01-12T19:15:29Z</time>
      </trkpt>
      <trkpt lat="59.4927293" lon="17.8770489">
        <ele>14.4</ele>
        <time>2013-01-12T19:15:31Z</time>
      </trkpt>
      <trkpt lat="59.4928545" lon="17.8770759">
        <ele>14.4</ele>
        <time>2013-01-12T19:15:34Z</time>
      </trkpt>
      <trkpt lat="59.492979" lon="17.8771186">
        <ele>15.4</ele>
        <time>2013-01-12T19:15:37Z</time>
      </trkpt>
      <trkpt lat="59.4930524" lon="17.8771667">
        <ele>15.4</ele>
        <time>2013-01-12T19:15:39Z</time>
      </trkpt>
      <trkpt lat="59.4931287" lon="17.8772316">
        <ele>15.4</ele>
        <time>2013-01-12T19:15:41Z</time>
      </trkpt>
      <trkpt lat="59.4932292" lon="17.8773454">
        <ele>14.8</ele>
        <time>2013-01-12T19:15:44Z</time>
      </trkpt>
      <trkpt lat="59.4932638" lon="17.8773879">
        <ele>14.6</ele>
        <time>2013-01-12T19:15:45Z</time>
      </trkpt>
      <trkpt lat="59.4933842" lon="17.8775542">
        <ele>14.4</ele>
        <time>2013-01-12T19:15:48Z</time>
      </trkpt>
      <trkpt lat="59.4934228" lon="17.8776028">
        <ele>14.2</ele>
        <time>2013-01-12T19:15:49Z</time>
      </trkpt>
      <trkpt lat="59.4935436" lon="17.8777474">
        <ele>12.8</ele>
        <time>2013-01-12T19:15:52Z</time>
      </trkpt>
      <trkpt lat="59.4936389" lon="17.8778575">
        <ele>13.4</ele>
        <time>2013-01-12T19:15:54Z</time>
      </trkpt>
      <trkpt lat="59.4937176" lon="17.8779965">
        <ele>12.4</ele>
        <time>2013-01-12T19:15:56Z</time>
      </trkpt>
      <trkpt lat="59.493883" lon="17.8781308">
        <ele>9.2</ele>
        <time>2013-01-12T19:16:00Z</time>
      </trkpt>
      <trkpt lat="59.4939731" lon="17.8780907">
        <ele>7.8</ele>
        <time>2013-01-12T19:16:02Z</time>
      </trkpt>
      <trkpt lat="59.4940684" lon="17.8780208">
        <ele>7.4</ele>
        <time>2013-01-12T19:16:04Z</time>
      </trkpt>
      <trkpt lat="59.4941583" lon="17.8779427">
        <ele>6.8</ele>
        <time>2013-01-12T19:16:06Z</time>
      </trkpt>
      <trkpt lat="59.4942293" lon="17.8778504">
        <ele>4.8</ele>
        <time>2013-01-12T19:16:08Z</time>
      </trkpt>
      <trkpt lat="59.4943049" lon="17.8777752">
        <ele>4.2</ele>
        <time>2013-01-12T19:16:10Z</time>
      </trkpt>
      <trkpt lat="59.4944065" lon="17.8776635">
        <ele>2.8</ele>
        <time>2013-01-12T19:16:13Z</time>
      </trkpt>
      <trkpt lat="59.4944931" lon="17.8775532">
        <ele>1.2</ele>
        <time>2013-01-12T19:16:16Z</time>
      </trkpt>
      <trkpt lat="59.4945796" lon="17.8774615">
        <ele>0.6</ele>
        <time>2013-01-12T19:16:19Z</time>
      </trkpt>
      <trkpt lat="59.4946807" lon="17.8774132">
        <ele>0.6</ele>
        <time>2013-01-12T19:16:22Z</time>
      </trkpt>
      <trkpt lat="59.4947655" lon="17.8773629">
        <ele>0.2</ele>
        <time>2013-01-12T19:16:25Z</time>
      </trkpt>
      <trkpt lat="59.494935" lon="17.8772527">
        <ele>0.2</ele>
        <time>2013-01-12T19:16:31Z</time>
      </trkpt>
      <trkpt lat="59.4951252" lon="17.8771336">
        <ele>4</ele>
        <time>2013-01-12T19:16:36Z</time>
      </trkpt>
      <trkpt lat="59.495249" lon="17.8768197">
        <ele>5.8</ele>
        <time>2013-01-12T19:16:42Z</time>
      </trkpt>
      <trkpt lat="59.4952344" lon="17.8764384">
        <ele>7.4</ele>
        <time>2013-01-12T19:16:48Z</time>
      </trkpt>
      <trkpt lat="59.4951812" lon="17.8760643">
        <ele>8</ele>
        <time>2013-01-12T19:16:54Z</time>
      </trkpt>
      <trkpt lat="59.4951874" lon="17.8756285">
        <ele>6.4</ele>
        <time>2013-01-12T19:16:59Z</time>
      </trkpt>
      <trkpt lat="59.495133" lon="17.8754344">
        <ele>5.4</ele>
        <time>2013-01-12T19:17:01Z</time>
      </trkpt>
      <trkpt lat="59.4950389" lon="17.8753014">
        <ele>5.2</ele>
        <time>2013-01-12T19:17:03Z</time>
      </trkpt>
      <trkpt lat="59.4948915" lon="17.8752031">
        <ele>4.6</ele>
        <time>2013-01-12T19:17:06Z</time>
      </trkpt>
      <trkpt lat="59.4948401" lon="17.8751795">
        <ele>4.4</ele>
        <time>2013-01-12T19:17:07Z</time>
      </trkpt>
      <trkpt lat="59.4946774" lon="17.8751501">
        <ele>3.8</ele>
        <time>2013-01-12T19:17:11Z</time>
      </trkpt>
      <trkpt lat="59.4946442" lon="17.8751618">
        <ele>3.6</ele>
        <time>2013-01-12T19:17:12Z</time>
      </trkpt>
      <trkpt lat="59.4946118" lon="17.8751651">
        <ele>4</ele>
        <time>2013-01-12T19:17:13Z</time>
      </trkpt>
      <trkpt lat="59.4944416" lon="17.875154">
        <ele>4.4</ele>
        <time>2013-01-12T19:17:18Z</time>
      </trkpt>
      <trkpt lat="59.4942334" lon="17.8751422">
        <ele>3.4</ele>
        <time>2013-01-12T19:17:24Z</time>
      </trkpt>
      <trkpt lat="59.4940307" lon="17.8752444">
        <ele>3</ele>
        <time>2013-01-12T19:17:30Z</time>
      </trkpt>
      <trkpt lat="59.4938312" lon="17.875364">
        <ele>5</ele>
        <time>2013-01-12T19:17:37Z</time>
      </trkpt>
      <trkpt lat="59.4936388" lon="17.8755113">
        <ele>6.4</ele>
        <time>2013-01-12T19:17:44Z</time>
      </trkpt>
      <trkpt lat="59.4934368" lon="17.8756469">
        <ele>7</ele>
        <time>2013-01-12T19:17:50Z</time>
      </trkpt>
      <trkpt lat="59.4932872" lon="17.875922">
        <ele>7</ele>
        <time>2013-01-12T19:17:55Z</time>
      </trkpt>
      <trkpt lat="59.4931098" lon="17.876116">
        <ele>6.2</ele>
        <time>2013-01-12T19:18:01Z</time>
      </trkpt>
      <trkpt lat="59.4929301" lon="17.8761829">
        <ele>4.6</ele>
        <time>2013-01-12T19:18:07Z</time>
      </trkpt>
      <trkpt lat="59.4927252" lon="17.8761974">
        <ele>4</ele>
        <time>2013-01-12T19:18:13Z</time>
      </trkpt>
      <trkpt lat="59.4925439" lon="17.8763347">
        <ele>4.8</ele>
        <time>2013-01-12T19:18:19Z</time>
      </trkpt>
      <trkpt lat="59.4923647" lon="17.8765131">
        <ele>7.4</ele>
        <time>2013-01-12T19:18:24Z</time>
      </trkpt>
      <trkpt lat="59.4921807" lon="17.8767092">
        <ele>8.8</ele>
        <time>2013-01-12T19:18:29Z</time>
      </trkpt>
      <trkpt lat="59.4920902" lon="17.876877">
        <ele>9.4</ele>
        <time>2013-01-12T19:18:32Z</time>
      </trkpt>
      <trkpt lat="59.4920554" lon="17.8770125">
        <ele>9.8</ele>
        <time>2013-01-12T19:18:34Z</time>
      </trkpt>
      <trkpt lat="59.4919071" lon="17.8771475">
        <ele>10</ele>
        <time>2013-01-12T19:18:39Z</time>
      </trkpt>
      <trkpt lat="59.4918733" lon="17.8771572">
        <ele>10.2</ele>
        <time>2013-01-12T19:18:40Z</time>
      </trkpt>
      <trkpt lat="59.4916735" lon="17.8772108">
        <ele>9.8</ele>
        <time>2013-01-12T19:18:45Z</time>
      </trkpt>
      <trkpt lat="59.4914849" lon="17.8771465">
        <ele>7.8</ele>
        <time>2013-01-12T19:18:50Z</time>
      </trkpt>
      <trkpt lat="59.491299" lon="17.8770055">
        <ele>8.8</ele>
        <time>2013-01-12T19:18:55Z</time>
      </trkpt>
      <trkpt lat="59.4911209" lon="17.8768335">
        <ele>8.4</ele>
        <time>2013-01-12T19:19:00Z</time>
      </trkpt>
      <trkpt lat="59.4909542" lon="17.8766384">
        <ele>7.6</ele>
        <time>2013-01-12T19:19:06Z</time>
      </trkpt>
      <trkpt lat="59.4907583" lon="17.8765123">
        <ele>7.6</ele>
        <time>2013-01-12T19:19:11Z</time>
      </trkpt>
      <trkpt lat="59.4905421" lon="17.8764192">
        <ele>7.4</ele>
        <time>2013-01-12T19:19:16Z</time>
      </trkpt>
      <trkpt lat="59.4905013" lon="17.8764047">
        <ele>7</ele>
        <time>2013-01-12T19:19:17Z</time>
      </trkpt>
      <trkpt lat="59.4904271" lon="17.8763709">
        <ele>6.4</ele>
        <time>2013-01-12T19:19:19Z</time>
      </trkpt>
      <trkpt lat="59.4903594" lon="17.8763287">
        <ele>5.8</ele>
        <time>2013-01-12T19:19:21Z</time>
      </trkpt>
      <trkpt lat="59.4902966" lon="17.8762747">
        <ele>6.2</ele>
        <time>2013-01-12T19:19:23Z</time>
      </trkpt>
      <trkpt lat="59.4901883" lon="17.8761693">
        <ele>6.2</ele>
        <time>2013-01-12T19:19:27Z</time>
      </trkpt>
      <trkpt lat="59.4900316" lon="17.8759598">
        <ele>6</ele>
        <time>2013-01-12T19:19:33Z</time>
      </trkpt>
      <trkpt lat="59.4898948" lon="17.8756517">
        <ele>8.4</ele>
        <time>2013-01-12T19:19:39Z</time>
      </trkpt>
      <trkpt lat="59.4898327" lon="17.8752755">
        <ele>7</ele>
        <time>2013-01-12T19:19:44Z</time>
      </trkpt>
      <trkpt lat="59.4898715" lon="17.8748534">
        <ele>6</ele>
        <time>2013-01-12T19:19:49Z</time>
      </trkpt>
      <trkpt lat="59.4897808" lon="17.8745614">
        <ele>8.2</ele>
        <time>2013-01-12T19:19:55Z</time>
      </trkpt>
      <trkpt lat="59.4896518" lon="17.8745544">
        <ele>9</ele>
        <time>2013-01-12T19:19:59Z</time>
      </trkpt>
      <trkpt lat="59.4895797" lon="17.8745962">
        <ele>8.8</ele>
        <time>2013-01-12T19:20:01Z</time>
      </trkpt>
      <trkpt lat="59.4894014" lon="17.8746897">
        <ele>9.4</ele>
        <time>2013-01-12T19:20:06Z</time>
      </trkpt>
      <trkpt lat="59.4892198" lon="17.8747443">
        <ele>10.2</ele>
        <time>2013-01-12T19:20:12Z</time>
      </trkpt>
      <trkpt lat="59.4890893" lon="17.8744638">
        <ele>9.8</ele>
        <time>2013-01-12T19:20:18Z</time>
      </trkpt>
      <trkpt lat="59.4890764" lon="17.8740895">
        <ele>11.2</ele>
        <time>2013-01-12T19:20:25Z</time>
      </trkpt>
      <trkpt lat="59.4890658" lon="17.8740061">
        <ele>11.4</ele>
        <time>2013-01-12T19:20:27Z</time>
      </trkpt>
      <trkpt lat="59.4890577" lon="17.8737307">
        <ele>12</ele>
        <time>2013-01-12T19:20:34Z</time>
      </trkpt>
      <trkpt lat="59.4891052" lon="17.8734262">
        <ele>15</ele>
        <time>2013-01-12T19:20:39Z</time>
      </trkpt>
      <trkpt lat="59.4891146" lon="17.8733648">
        <ele>15.4</ele>
        <time>2013-01-12T19:20:40Z</time>
      </trkpt>
      <trkpt lat="59.4891688" lon="17.872989">
        <ele>17.2</ele>
        <time>2013-01-12T19:20:46Z</time>
      </trkpt>
      <trkpt lat="59.4891834" lon="17.8726124">
        <ele>18.4</ele>
        <time>2013-01-12T19:20:52Z</time>
      </trkpt>
      <trkpt lat="59.4891519" lon="17.8722482">
        <ele>18.6</ele>
        <time>2013-01-12T19:20:58Z</time>
      </trkpt>
      <trkpt lat="59.4890551" lon="17.8719084">
        <ele>18.4</ele>
        <time>2013-01-12T19:21:05Z</time>
      </trkpt>
      <trkpt lat="59.4889645" lon="17.8715769">
        <ele>19.6</ele>
        <time>2013-01-12T19:21:12Z</time>
      </trkpt>
      <trkpt lat="59.4889148" lon="17.8712188">
        <ele>21</ele>
        <time>2013-01-12T19:21:18Z</time>
      </trkpt>
      <trkpt lat="59.4888818" lon="17.8708373">
        <ele>21.6</ele>
        <time>2013-01-12T19:21:24Z</time>
      </trkpt>
      <trkpt lat="59.4888511" lon="17.8704544">
        <ele>22.2</ele>
        <time>2013-01-12T19:21:30Z</time>
      </trkpt>
      <trkpt lat="59.4888753" lon="17.8700615">
        <ele>22.4</ele>
        <time>2013-01-12T19:21:36Z</time>
      </trkpt>
      <trkpt lat="59.4889997" lon="17.8697794">
        <ele>23</ele>
        <time>2013-01-12T19:21:42Z</time>
      </trkpt>
      <trkpt lat="59.4891405" lon="17.8695461">
        <ele>23.4</ele>
        <time>2013-01-12T19:21:48Z</time>
      </trkpt>
      <trkpt lat="59.4892932" lon="17.8692522">
        <ele>24.6</ele>
        <time>2013-01-12T19:21:54Z</time>
      </trkpt>
      <trkpt lat="59.4894684" lon="17.8690587">
        <ele>25.4</ele>
        <time>2013-01-12T19:22:00Z</time>
      </trkpt>
      <trkpt lat="59.4896626" lon="17.8690266">
        <ele>26</ele>
        <time>2013-01-12T19:22:06Z</time>
      </trkpt>
      <trkpt lat="59.4898581" lon="17.8690278">
        <ele>25.8</ele>
        <time>2013-01-12T19:22:13Z</time>
      </trkpt>
      <trkpt lat="59.4900449" lon="17.8690179">
        <ele>25</ele>
        <time>2013-01-12T19:22:20Z</time>
      </trkpt>
      <trkpt lat="59.4902505" lon="17.8689863">
        <ele>22.6</ele>
        <time>2013-01-12T19:22:28Z</time>
      </trkpt>
      <trkpt lat="59.4904256" lon="17.8688941">
        <ele>22.8</ele>
        <time>2013-01-12T19:22:33Z</time>
      </trkpt>
      <trkpt lat="59.4906267" lon="17.8687784">
        <ele>23.4</ele>
        <time>2013-01-12T19:22:39Z</time>
      </trkpt>
      <trkpt lat="59.4906529" lon="17.8687687">
        <ele>23.4</ele>
        <time>2013-01-12T19:22:40Z</time>
      </trkpt>
      <trkpt lat="59.4908278" lon="17.8687278">
        <ele>23.6</ele>
        <time>2013-01-12T19:22:47Z</time>
      </trkpt>
      <trkpt lat="59.4910352" lon="17.8688045">
        <ele>25.2</ele>
        <time>2013-01-12T19:22:54Z</time>
      </trkpt>
      <trkpt lat="59.4912285" lon="17.8689463">
        <ele>26.6</ele>
        <time>2013-01-12T19:22:59Z</time>
      </trkpt>
      <trkpt lat="59.4913885" lon="17.8691514">
        <ele>27.4</ele>
        <time>2013-01-12T19:23:06Z</time>
      </trkpt>
      <trkpt lat="59.4915574" lon="17.8693608">
        <ele>29.8</ele>
        <time>2013-01-12T19:23:14Z</time>
      </trkpt>
      <trkpt lat="59.4917441" lon="17.8694591">
        <ele>32.2</ele>
        <time>2013-01-12T19:23:22Z</time>
      </trkpt>
      <trkpt lat="59.4919452" lon="17.869419">
        <ele>34</ele>
        <time>2013-01-12T19:23:28Z</time>
      </trkpt>
      <trkpt lat="59.492122" lon="17.869207">
        <ele>36</ele>
        <time>2013-01-12T19:23:34Z</time>
      </trkpt>
      <trkpt lat="59.4922605" lon="17.8689075">
        <ele>36.6</ele>
        <time>2013-01-12T19:23:41Z</time>
      </trkpt>
      <trkpt lat="59.4922475" lon="17.8687252">
        <ele>36.8</ele>
        <time>2013-01-12T19:23:44Z</time>
      </trkpt>
      <trkpt lat="59.4921611" lon="17.8686361">
        <ele>36.4</ele>
        <time>2013-01-12T19:23:47Z</time>
      </trkpt>
      <trkpt lat="59.4920914" lon="17.8686361">
        <ele>36</ele>
        <time>2013-01-12T19:23:49Z</time>
      </trkpt>
      <trkpt lat="59.4919746" lon="17.8686216">
        <ele>35.6</ele>
        <time>2013-01-12T19:23:52Z</time>
      </trkpt>
      <trkpt lat="59.4918022" lon="17.8685475">
        <ele>34</ele>
        <time>2013-01-12T19:23:56Z</time>
      </trkpt>
      <trkpt lat="59.4916938" lon="17.8684497">
        <ele>33</ele>
        <time>2013-01-12T19:23:58Z</time>
      </trkpt>
      <trkpt lat="59.4916463" lon="17.8683821">
        <ele>33</ele>
        <time>2013-01-12T19:23:59Z</time>
      </trkpt>
      <trkpt lat="59.4914489" lon="17.8681265">
        <ele>31.4</ele>
        <time>2013-01-12T19:24:03Z</time>
      </trkpt>
      <trkpt lat="59.4913043" lon="17.8679197">
        <ele>30.8</ele>
        <time>2013-01-12T19:24:06Z</time>
      </trkpt>
      <trkpt lat="59.4912607" lon="17.8678359">
        <ele>30</ele>
        <time>2013-01-12T19:24:07Z</time>
      </trkpt>
      <trkpt lat="59.4911134" lon="17.8675834">
        <ele>29.2</ele>
        <time>2013-01-12T19:24:10Z</time>
      </trkpt>
      <trkpt lat="59.491027" lon="17.8674533">
        <ele>29.8</ele>
        <time>2013-01-12T19:24:12Z</time>
      </trkpt>
      <trkpt lat="59.4909406" lon="17.8673529">
        <ele>29.6</ele>
        <time>2013-01-12T19:24:14Z</time>
      </trkpt>
      <trkpt lat="59.4907293" lon="17.867349">
        <ele>29.4</ele>
        <time>2013-01-12T19:24:18Z</time>
      </trkpt>
      <trkpt lat="59.4905859" lon="17.8674401">
        <ele>28.4</ele>
        <time>2013-01-12T19:24:21Z</time>
      </trkpt>
      <trkpt lat="59.4905415" lon="17.8674747">
        <ele>28</ele>
        <time>2013-01-12T19:24:22Z</time>
      </trkpt>
      <trkpt lat="59.490453" lon="17.8675348">
        <ele>27.2</ele>
        <time>2013-01-12T19:24:24Z</time>
      </trkpt>
      <trkpt lat="59.4903713" lon="17.8675871">
        <ele>27.4</ele>
        <time>2013-01-12T19:24:26Z</time>
      </trkpt>
      <trkpt lat="59.4903278" lon="17.867594">
        <ele>27.2</ele>
        <time>2013-01-12T19:24:27Z</time>
      </trkpt>
      <trkpt lat="59.4902453" lon="17.8676129">
        <ele>26.8</ele>
        <time>2013-01-12T19:24:29Z</time>
      </trkpt>
      <trkpt lat="59.4901279" lon="17.8676494">
        <ele>25.8</ele>
        <time>2013-01-12T19:24:33Z</time>
      </trkpt>
      <trkpt lat="59.49007" lon="17.8676626">
        <ele>26.4</ele>
        <time>2013-01-12T19:24:35Z</time>
      </trkpt>
      <trkpt lat="59.4899212" lon="17.8676954">
        <ele>26.6</ele>
        <time>2013-01-12T19:24:39Z</time>
      </trkpt>
      <trkpt lat="59.4896926" lon="17.8676844">
        <ele>26</ele>
        <time>2013-01-12T19:24:43Z</time>
      </trkpt>
      <trkpt lat="59.4896356" lon="17.8676731">
        <ele>25.4</ele>
        <time>2013-01-12T19:24:44Z</time>
      </trkpt>
      <trkpt lat="59.4894731" lon="17.8676658">
        <ele>24.2</ele>
        <time>2013-01-12T19:24:47Z</time>
      </trkpt>
      <trkpt lat="59.4892647" lon="17.8676846">
        <ele>23.4</ele>
        <time>2013-01-12T19:24:51Z</time>
      </trkpt>
      <trkpt lat="59.4892182" lon="17.8676741">
        <ele>23.6</ele>
        <time>2013-01-12T19:24:52Z</time>
      </trkpt>
      <trkpt lat="59.4890849" lon="17.8676228">
        <ele>22.4</ele>
        <time>2013-01-12T19:24:55Z</time>
      </trkpt>
      <trkpt lat="59.4889603" lon="17.8675921">
        <ele>22.4</ele>
        <time>2013-01-12T19:24:58Z</time>
      </trkpt>
      <trkpt lat="59.4888875" lon="17.8676096">
        <ele>22</ele>
        <time>2013-01-12T19:25:00Z</time>
      </trkpt>
      <trkpt lat="59.4888256" lon="17.867632">
        <ele>21.6</ele>
        <time>2013-01-12T19:25:02Z</time>
      </trkpt>
      <trkpt lat="59.4886754" lon="17.8676938">
        <ele>21.2</ele>
        <time>2013-01-12T19:25:06Z</time>
      </trkpt>
      <trkpt lat="59.48848" lon="17.8677752">
        <ele>19.8</ele>
        <time>2013-01-12T19:25:10Z</time>
      </trkpt>
      <trkpt lat="59.4882962" lon="17.8677479">
        <ele>20.2</ele>
        <time>2013-01-12T19:25:14Z</time>
      </trkpt>
      <trkpt lat="59.4881618" lon="17.8677172">
        <ele>19.8</ele>
        <time>2013-01-12T19:25:17Z</time>
      </trkpt>
      <trkpt lat="59.4880786" lon="17.8676935">
        <ele>19</ele>
        <time>2013-01-12T19:25:19Z</time>
      </trkpt>
      <trkpt lat="59.4880401" lon="17.8676798">
        <ele>19</ele>
        <time>2013-01-12T19:25:20Z</time>
      </trkpt>
      <trkpt lat="59.4879582" lon="17.8676426">
        <ele>18.4</ele>
        <time>2013-01-12T19:25:22Z</time>
      </trkpt>
      <trkpt lat="59.4878834" lon="17.8676094">
        <ele>18</ele>
        <time>2013-01-12T19:25:24Z</time>
      </trkpt>
      <trkpt lat="59.4877372" lon="17.8675435">
        <ele>18</ele>
        <time>2013-01-12T19:25:28Z</time>
      </trkpt>
      <trkpt lat="59.4877011" lon="17.8675307">
        <ele>18</ele>
        <time>2013-01-12T19:25:29Z</time>
      </trkpt>
      <trkpt lat="59.4875112" lon="17.8676177">
        <ele>18.4</ele>
        <time>2013-01-12T19:25:35Z</time>
      </trkpt>
      <trkpt lat="59.4874834" lon="17.8677189">
        <ele>18.6</ele>
        <time>2013-01-12T19:25:37Z</time>
      </trkpt>
      <trkpt lat="59.4875207" lon="17.8679507">
        <ele>19.4</ele>
        <time>2013-01-12T19:25:41Z</time>
      </trkpt>
      <trkpt lat="59.4875425" lon="17.8683222">
        <ele>18.8</ele>
        <time>2013-01-12T19:25:46Z</time>
      </trkpt>
      <trkpt lat="59.4875031" lon="17.8686808">
        <ele>21</ele>
        <time>2013-01-12T19:25:51Z</time>
      </trkpt>
      <trkpt lat="59.487487" lon="17.8690447">
        <ele>22.4</ele>
        <time>2013-01-12T19:25:56Z</time>
      </trkpt>
      <trkpt lat="59.487445" lon="17.8694447">
        <ele>22.2</ele>
        <time>2013-01-12T19:26:02Z</time>
      </trkpt>
      <trkpt lat="59.4873512" lon="17.8697488">
        <ele>23.4</ele>
        <time>2013-01-12T19:26:08Z</time>
      </trkpt>
      <trkpt lat="59.4872731" lon="17.8700836">
        <ele>22.8</ele>
        <time>2013-01-12T19:26:13Z</time>
      </trkpt>
      <trkpt lat="59.4872151" lon="17.87045">
        <ele>20.8</ele>
        <time>2013-01-12T19:26:18Z</time>
      </trkpt>
      <trkpt lat="59.4872354" lon="17.8708262">
        <ele>19</ele>
        <time>2013-01-12T19:26:24Z</time>
      </trkpt>
      <trkpt lat="59.4873918" lon="17.8709869">
        <ele>18.2</ele>
        <time>2013-01-12T19:26:28Z</time>
      </trkpt>
      <trkpt lat="59.487498" lon="17.8710501">
        <ele>17.2</ele>
        <time>2013-01-12T19:26:30Z</time>
      </trkpt>
      <trkpt lat="59.4875918" lon="17.8711838">
        <ele>16.8</ele>
        <time>2013-01-12T19:26:32Z</time>
      </trkpt>
      <trkpt lat="59.4876341" lon="17.8712361">
        <ele>16.6</ele>
        <time>2013-01-12T19:26:33Z</time>
      </trkpt>
      <trkpt lat="59.4877968" lon="17.8713477">
        <ele>16.4</ele>
        <time>2013-01-12T19:26:37Z</time>
      </trkpt>
      <trkpt lat="59.4879406" lon="17.8716374">
        <ele>15.4</ele>
        <time>2013-01-12T19:26:41Z</time>
      </trkpt>
      <trkpt lat="59.4879907" lon="17.8718069">
        <ele>15</ele>
        <time>2013-01-12T19:26:43Z</time>
      </trkpt>
      <trkpt lat="59.4880368" lon="17.8719912">
        <ele>14.8</ele>
        <time>2013-01-12T19:26:45Z</time>
      </trkpt>
      <trkpt lat="59.4881387" lon="17.8723083">
        <ele>13</ele>
        <time>2013-01-12T19:26:49Z</time>
      </trkpt>
      <trkpt lat="59.4881651" lon="17.8723923">
        <ele>12.8</ele>
        <time>2013-01-12T19:26:50Z</time>
      </trkpt>
      <trkpt lat="59.4882288" lon="17.8726998">
        <ele>11.6</ele>
        <time>2013-01-12T19:26:53Z</time>
      </trkpt>
      <trkpt lat="59.4883068" lon="17.8731002">
        <ele>9.8</ele>
        <time>2013-01-12T19:26:57Z</time>
      </trkpt>
      <trkpt lat="59.4884978" lon="17.8732661">
        <ele>10.2</ele>
        <time>2013-01-12T19:27:01Z</time>
      </trkpt>
      <trkpt lat="59.488557" lon="17.8732795">
        <ele>10.4</ele>
        <time>2013-01-12T19:27:02Z</time>
      </trkpt>
      <trkpt lat="59.4886133" lon="17.8733008">
        <ele>11.2</ele>
        <time>2013-01-12T19:27:03Z</time>
      </trkpt>
      <trkpt lat="59.488722" lon="17.8733636">
        <ele>12.2</ele>
        <time>2013-01-12T19:27:05Z</time>
      </trkpt>
      <trkpt lat="59.4888106" lon="17.873438">
        <ele>12.8</ele>
        <time>2013-01-12T19:27:07Z</time>
      </trkpt>
      <trkpt lat="59.4888924" lon="17.8735541">
        <ele>13.6</ele>
        <time>2013-01-12T19:27:09Z</time>
      </trkpt>
      <trkpt lat="59.4889261" lon="17.8737031">
        <ele>11.4</ele>
        <time>2013-01-12T19:27:11Z</time>
      </trkpt>
      <trkpt lat="59.4889515" lon="17.8739671">
        <ele>10</ele>
        <time>2013-01-12T19:27:14Z</time>
      </trkpt>
      <trkpt lat="59.4889767" lon="17.8741627">
        <ele>10</ele>
        <time>2013-01-12T19:27:16Z</time>
      </trkpt>
      <trkpt lat="59.4890312" lon="17.8743627">
        <ele>10.8</ele>
        <time>2013-01-12T19:27:18Z</time>
      </trkpt>
      <trkpt lat="59.4891663" lon="17.8746983">
        <ele>10.6</ele>
        <time>2013-01-12T19:27:22Z</time>
      </trkpt>
      <trkpt lat="59.4892282" lon="17.8748174">
        <ele>10</ele>
        <time>2013-01-12T19:27:24Z</time>
      </trkpt>
      <trkpt lat="59.4893274" lon="17.8748736">
        <ele>9.4</ele>
        <time>2013-01-12T19:27:27Z</time>
      </trkpt>
      <trkpt lat="59.4894378" lon="17.8749176">
        <ele>8.6</ele>
        <time>2013-01-12T19:27:30Z</time>
      </trkpt>
      <trkpt lat="59.4894819" lon="17.8749355">
        <ele>8.2</ele>
        <time>2013-01-12T19:27:31Z</time>
      </trkpt>
      <trkpt lat="59.4895237" lon="17.8749547">
        <ele>8.2</ele>
        <time>2013-01-12T19:27:32Z</time>
      </trkpt>
      <trkpt lat="59.4897129" lon="17.8751196">
        <ele>8.4</ele>
        <time>2013-01-12T19:27:37Z</time>
      </trkpt>
      <trkpt lat="59.4897471" lon="17.8751794">
        <ele>9</ele>
        <time>2013-01-12T19:27:38Z</time>
      </trkpt>
      <trkpt lat="59.4898109" lon="17.8754759">
        <ele>8.8</ele>
        <time>2013-01-12T19:27:42Z</time>
      </trkpt>
      <trkpt lat="59.4899562" lon="17.8757645">
        <ele>9.2</ele>
        <time>2013-01-12T19:27:48Z</time>
      </trkpt>
      <trkpt lat="59.4900541" lon="17.8760666">
        <ele>8.4</ele>
        <time>2013-01-12T19:27:52Z</time>
      </trkpt>
      <trkpt lat="59.4901047" lon="17.876225">
        <ele>7.8</ele>
        <time>2013-01-12T19:27:54Z</time>
      </trkpt>
      <trkpt lat="59.490182" lon="17.8763503">
        <ele>8.2</ele>
        <time>2013-01-12T19:27:56Z</time>
      </trkpt>
      <trkpt lat="59.4903008" lon="17.8766704">
        <ele>7.6</ele>
        <time>2013-01-12T19:28:01Z</time>
      </trkpt>
      <trkpt lat="59.4901821" lon="17.87698">
        <ele>6.4</ele>
        <time>2013-01-12T19:28:07Z</time>
      </trkpt>
      <trkpt lat="59.4899931" lon="17.8771186">
        <ele>4.6</ele>
        <time>2013-01-12T19:28:12Z</time>
      </trkpt>
      <trkpt lat="59.4898107" lon="17.8771855">
        <ele>1.8</ele>
        <time>2013-01-12T19:28:17Z</time>
      </trkpt>
      <trkpt lat="59.489626" lon="17.8771828">
        <ele>1.2</ele>
        <time>2013-01-12T19:28:22Z</time>
      </trkpt>
      <trkpt lat="59.4894275" lon="17.8771194">
        <ele>1.4</ele>
        <time>2013-01-12T19:28:27Z</time>
      </trkpt>
      <trkpt lat="59.4892472" lon="17.8769645">
        <ele>2.8</ele>
        <time>2013-01-12T19:28:32Z</time>
      </trkpt>
      <trkpt lat="59.4890826" lon="17.876768">
        <ele>3.4</ele>
        <time>2013-01-12T19:28:37Z</time>
      </trkpt>
      <trkpt lat="59.4888872" lon="17.8766423">
        <ele>4</ele>
        <time>2013-01-12T19:28:43Z</time>
      </trkpt>
      <trkpt lat="59.4886861" lon="17.8767936">
        <ele>6.4</ele>
        <time>2013-01-12T19:28:49Z</time>
      </trkpt>
      <trkpt lat="59.4884942" lon="17.8768829">
        <ele>8</ele>
        <time>2013-01-12T19:28:54Z</time>
      </trkpt>
      <trkpt lat="59.4882909" lon="17.8769247">
        <ele>6.6</ele>
        <time>2013-01-12T19:29:00Z</time>
      </trkpt>
      <trkpt lat="59.4882381" lon="17.8772708">
        <ele>7</ele>
        <time>2013-01-12T19:29:05Z</time>
      </trkpt>
      <trkpt lat="59.4882082" lon="17.8776893">
        <ele>6.8</ele>
        <time>2013-01-12T19:29:10Z</time>
      </trkpt>
      <trkpt lat="59.4882155" lon="17.8780136">
        <ele>5.8</ele>
        <time>2013-01-12T19:29:14Z</time>
      </trkpt>
      <trkpt lat="59.488205" lon="17.8780731">
        <ele>5.8</ele>
        <time>2013-01-12T19:29:15Z</time>
      </trkpt>
      <trkpt lat="59.4880728" lon="17.8782597">
        <ele>6.2</ele>
        <time>2013-01-12T19:29:20Z</time>
      </trkpt>
      <trkpt lat="59.4880438" lon="17.8782671">
        <ele>6</ele>
        <time>2013-01-12T19:29:21Z</time>
      </trkpt>
      <trkpt lat="59.4878646" lon="17.8780671">
        <ele>7</ele>
        <time>2013-01-12T19:29:27Z</time>
      </trkpt>
      <trkpt lat="59.4877099" lon="17.8778158">
        <ele>8.8</ele>
        <time>2013-01-12T19:29:33Z</time>
      </trkpt>
      <trkpt lat="59.4875611" lon="17.8775983">
        <ele>7.4</ele>
        <time>2013-01-12T19:29:39Z</time>
      </trkpt>
      <trkpt lat="59.4874788" lon="17.8772702">
        <ele>5.6</ele>
        <time>2013-01-12T19:29:44Z</time>
      </trkpt>
      <trkpt lat="59.4873741" lon="17.8769645">
        <ele>5</ele>
        <time>2013-01-12T19:29:49Z</time>
      </trkpt>
      <trkpt lat="59.4872657" lon="17.8766792">
        <ele>6.2</ele>
        <time>2013-01-12T19:29:54Z</time>
      </trkpt>
      <trkpt lat="59.4871398" lon="17.8764312">
        <ele>6.4</ele>
        <time>2013-01-12T19:29:59Z</time>
      </trkpt>
      <trkpt lat="59.4869943" lon="17.8761603">
        <ele>7.8</ele>
        <time>2013-01-12T19:30:05Z</time>
      </trkpt>
      <trkpt lat="59.4868409" lon="17.8758702">
        <ele>8.8</ele>
        <time>2013-01-12T19:30:11Z</time>
      </trkpt>
      <trkpt lat="59.486694" lon="17.8755863">
        <ele>10.2</ele>
        <time>2013-01-12T19:30:17Z</time>
      </trkpt>
      <trkpt lat="59.4865537" lon="17.8752817">
        <ele>12</ele>
        <time>2013-01-12T19:30:23Z</time>
      </trkpt>
      <trkpt lat="59.4864276" lon="17.8750083">
        <ele>13.6</ele>
        <time>2013-01-12T19:30:29Z</time>
      </trkpt>
      <trkpt lat="59.4862786" lon="17.8747616">
        <ele>14.2</ele>
        <time>2013-01-12T19:30:35Z</time>
      </trkpt>
      <trkpt lat="59.4860745" lon="17.8747633">
        <ele>14.6</ele>
        <time>2013-01-12T19:30:42Z</time>
      </trkpt>
      <trkpt lat="59.4858885" lon="17.8749113">
        <ele>14.6</ele>
        <time>2013-01-12T19:30:48Z</time>
      </trkpt>
      <trkpt lat="59.485702" lon="17.8751031">
        <ele>13.4</ele>
        <time>2013-01-12T19:30:54Z</time>
      </trkpt>
      <trkpt lat="59.485542" lon="17.8753318">
        <ele>13.8</ele>
        <time>2013-01-12T19:31:00Z</time>
      </trkpt>
      <trkpt lat="59.4854081" lon="17.8755624">
        <ele>14.6</ele>
        <time>2013-01-12T19:31:05Z</time>
      </trkpt>
      <trkpt lat="59.485299" lon="17.875891">
        <ele>14.4</ele>
        <time>2013-01-12T19:31:11Z</time>
      </trkpt>
      <trkpt lat="59.4852361" lon="17.876255">
        <ele>14.2</ele>
        <time>2013-01-12T19:31:17Z</time>
      </trkpt>
      <trkpt lat="59.4851654" lon="17.8766052">
        <ele>15.2</ele>
        <time>2013-01-12T19:31:24Z</time>
      </trkpt>
      <trkpt lat="59.485152" lon="17.8766426">
        <ele>15</ele>
        <time>2013-01-12T19:31:25Z</time>
      </trkpt>
    </trkseg>
  </trk>
</gpx>